Time,TemperatureF,DewpointF,PressureIn,WindDirection,WindDirectionDegrees,WindSpeedMPH,WindSpeedGustMPH,Humidity,HourlyPrecipIn,Conditions,Clouds,dailyrainin,SolarRadiationWatts/m^2,SoftwareType,DateUTC
2012-11-15 00:00:00,66.6,64.2,30.13,ESE,114,4.0,7.0,92,0.00,,---,0.00,0.00,VWS V14.01,2012-11-15 05:00:00,
2012-11-15 00:01:00,66.6,64.2,30.13,NE,45,2.0,7.0,92,0.00,,---,0.00,0.00,VWS V14.01,2012-11-15 05:01:00,
2012-11-15 00:02:00,66.6,64.5,30.13,ENE,65,0.0,1.0,93,0.00,,---,0.00,0.00,VWS V14.01,2012-11-15 05:02:00,
2012-11-15 00:03:00,66.6,64.5,30.13,East,83,1.0,2.0,93,0.00,,---,0.00,0.00,VWS V14.01,2012-11-15 05:03:00,
2012-11-15 00:04:00,66.5,64.4,30.13,North,355,1.0,3.0,93,0.00,,---,0.00,0.00,VWS V14.01,2012-11-15 05:04:00,
2012-11-15 00:05:00,66.5,64.4,30.13,ENE,75,0.0,3.0,93,0.00,,---,0.00,0.00,VWS V14.01,2012-11-15 05:05:00,
2012-11-15 00:06:00,66.6,64.5,30.13,East,95,4.0,7.0,93,0.00,,---,0.00,0.00,VWS V14.01,2012-11-15 05:06:00,
2012-11-15 00:07:00,66.5,64.1,30.12,ENE,62,5.0,5.0,92,0.00,,---,0.00,0.00,VWS V14.01,2012-11-15 05:07:00,
2012-11-15 00:08:00,66.5,64.1,30.12,East,83,3.0,7.0,92,0.00,,---,0.00,0.00,VWS V14.01,2012-11-15 05:08:00,
2012-11-15 00:09:00,66.5,64.1,30.12,ENE,73,3.0,7.0,92,0.00,,---,0.00,0.00,VWS V14.01,2012-11-15 05:09:00,
2012-11-15 00:10:00,66.4,64.0,30.12,NE,46,0.0,7.0,92,0.00,,---,0.00,0.00,VWS V14.01,2012-11-15 05:10:00,
2012-11-15 00:11:00,66.6,64.2,30.13,ENE,65,0.0,1.0,92,0.00,,---,0.00,0.00,VWS V14.01,2012-11-15 05:11:00,
2012-11-15 00:12:00,66.4,64.0,30.12,East,88,1.0,7.0,92,0.00,,---,0.00,0.00,VWS V14.01,2012-11-15 05:12:00,
2012-11-15 00:13:00,66.4,64.0,30.12,NE,39,2.0,7.0,92,0.00,,---,0.00,0.00,VWS V14.01,2012-11-15 05:13:00,
2012-11-15 00:14:00,66.4,64.0,30.12,East,91,1.0,7.0,92,0.00,,---,0.00,0.00,VWS V14.01,2012-11-15 05:14:00,
2012-11-15 00:15:00,66.4,64.0,30.12,East,91,0.0,7.0,92,0.00,,---,0.00,0.00,VWS V14.01,2012-11-15 05:15:00,
2012-11-15 00:16:00,66.5,64.1,30.13,NE,48,0.0,4.0,92,0.00,,---,0.00,0.00,VWS V14.01,2012-11-15 05:16:00,
2012-11-15 00:17:00,66.4,64.0,30.12,ESE,102,2.0,7.0,92,0.00,,---,0.00,0.00,VWS V14.01,2012-11-15 05:17:00,
2012-11-15 00:18:00,66.4,64.0,30.12,ENE,71,0.0,7.0,92,0.00,,---,0.00,0.00,VWS V14.01,2012-11-15 05:18:00,
2012-11-15 00:19:00,66.3,63.9,30.12,ENE,71,1.0,7.0,92,0.00,,---,0.00,0.00,VWS V14.01,2012-11-15 05:19:00,
2012-11-15 00:20:00,66.4,64.0,30.12,ENE,78,0.0,7.0,92,0.00,,---,0.00,0.00,VWS V14.01,2012-11-15 05:20:00,
2012-11-15 00:21:00,66.4,64.0,30.12,East,88,1.0,7.0,92,0.00,,---,0.00,0.00,VWS V14.01,2012-11-15 05:21:00,
2012-11-15 00:22:00,66.3,63.9,30.12,ENE,58,1.0,7.0,92,0.00,,---,0.00,0.00,VWS V14.01,2012-11-15 05:22:00,
2012-11-15 00:23:00,66.3,63.9,30.12,ENE,72,0.0,7.0,92,0.00,,---,0.00,0.00,VWS V14.01,2012-11-15 05:23:00,
2012-11-15 00:24:00,66.3,63.9,30.12,ENE,70,1.0,7.0,92,0.00,,---,0.00,0.00,VWS V14.01,2012-11-15 05:24:00,
2012-11-15 00:25:00,66.3,63.9,30.12,East,86,6.0,7.0,92,0.00,,---,0.00,0.00,VWS V14.01,2012-11-15 05:25:00,
2012-11-15 00:26:00,66.3,63.9,30.12,ENE,70,2.0,7.0,92,0.00,,---,0.00,0.00,VWS V14.01,2012-11-15 05:26:00,
2012-11-15 00:27:00,66.4,64.0,30.12,ESE,102,2.0,7.0,92,0.00,,---,0.00,0.00,VWS V14.01,2012-11-15 05:27:00,
2012-11-15 00:28:00,66.3,63.9,30.12,ENE,60,2.0,7.0,92,0.00,,---,0.00,0.00,VWS V14.01,2012-11-15 05:28:00,
2012-11-15 00:29:00,66.3,63.9,30.12,East,84,2.0,7.0,92,0.00,,---,0.00,0.00,VWS V14.01,2012-11-15 05:29:00,
2012-11-15 00:30:00,66.3,63.9,30.12,NNE,25,2.0,7.0,92,0.00,,---,0.00,0.00,VWS V14.01,2012-11-15 05:30:00,
2012-11-15 00:31:00,66.3,63.9,30.12,NNE,33,0.0,7.0,92,0.00,,---,0.00,0.00,VWS V14.01,2012-11-15 05:31:00,
2012-11-15 00:32:00,66.3,63.9,30.12,ENE,72,0.0,7.0,92,0.00,,---,0.00,0.00,VWS V14.01,2012-11-15 05:32:00,
2012-11-15 00:33:00,66.2,63.8,30.12,ENE,66,2.0,7.0,92,0.00,,---,0.00,0.00,VWS V14.01,2012-11-15 05:33:00,
2012-11-15 00:34:00,66.2,63.8,30.12,NE,44,0.0,7.0,92,0.00,,---,0.00,0.00,VWS V14.01,2012-11-15 05:34:00,
2012-11-15 00:35:00,66.2,63.8,30.12,East,81,2.0,7.0,92,0.00,,---,0.00,0.00,VWS V14.01,2012-11-15 05:35:00,
2012-11-15 00:36:00,66.2,63.8,30.12,ENE,64,0.0,7.0,92,0.00,,---,0.00,0.00,VWS V14.01,2012-11-15 05:36:00,
2012-11-15 00:37:00,66.3,63.9,30.12,East,101,3.0,7.0,92,0.00,,---,0.00,0.00,VWS V14.01,2012-11-15 05:37:00,
2012-11-15 00:38:00,66.3,64.2,30.12,ENE,58,0.0,7.0,93,0.00,,---,0.00,0.00,VWS V14.01,2012-11-15 05:38:00,
2012-11-15 00:39:00,66.3,64.2,30.12,ENE,75,0.0,7.0,93,0.00,,---,0.00,0.00,VWS V14.01,2012-11-15 05:39:00,
2012-11-15 00:40:00,66.2,64.1,30.12,ENE,60,1.0,7.0,93,0.00,,---,0.00,0.00,VWS V14.01,2012-11-15 05:40:00,
2012-11-15 00:41:00,66.2,64.1,30.12,ENE,58,1.0,7.0,93,0.00,,---,0.00,0.00,VWS V14.01,2012-11-15 05:41:00,
2012-11-15 00:42:00,66.2,64.1,30.12,East,94,2.0,7.0,93,0.00,,---,0.00,0.00,VWS V14.01,2012-11-15 05:42:00,
2012-11-15 00:43:00,66.3,63.9,30.12,NE,42,2.0,7.0,92,0.00,,---,0.00,0.00,VWS V14.01,2012-11-15 05:43:00,
2012-11-15 00:44:00,66.2,64.1,30.12,ENE,69,0.0,7.0,93,0.00,,---,0.00,0.00,VWS V14.01,2012-11-15 05:44:00,
2012-11-15 00:45:00,66.2,64.1,30.11,ENE,65,1.0,7.0,93,0.00,,---,0.00,0.00,VWS V14.01,2012-11-15 05:45:00,
2012-11-15 00:46:00,66.2,64.1,30.12,ENE,65,1.0,7.0,93,0.00,,---,0.00,0.00,VWS V14.01,2012-11-15 05:46:00,
2012-11-15 00:47:00,66.2,64.1,30.12,ENE,60,3.0,7.0,93,0.00,,---,0.00,0.00,VWS V14.01,2012-11-15 05:47:00,
2012-11-15 00:48:00,66.2,64.1,30.12,NE,52,0.0,7.0,93,0.00,,---,0.00,0.00,VWS V14.01,2012-11-15 05:48:00,
2012-11-15 00:49:00,66.2,64.1,30.12,ENE,78,0.0,7.0,93,0.00,,---,0.00,0.00,VWS V14.01,2012-11-15 05:49:00,
2012-11-15 00:50:00,66.1,64.0,30.12,NE,43,6.0,7.0,93,0.00,,---,0.00,0.00,VWS V14.01,2012-11-15 05:50:00,
2012-11-15 00:51:00,66.1,64.0,30.11,NNE,27,0.0,7.0,93,0.00,,---,0.00,0.00,VWS V14.01,2012-11-15 05:51:00,
2012-11-15 00:52:00,66.1,64.0,30.11,ENE,72,1.0,7.0,93,0.00,,---,0.00,0.00,VWS V14.01,2012-11-15 05:52:00,
2012-11-15 00:53:00,66.2,64.1,30.12,ENE,69,2.0,7.0,93,0.00,,---,0.00,0.00,VWS V14.01,2012-11-15 05:53:00,
2012-11-15 00:54:00,66.1,64.0,30.11,East,84,1.0,7.0,93,0.00,,---,0.00,0.00,VWS V14.01,2012-11-15 05:54:00,
2012-11-15 00:55:00,66.1,64.0,30.11,ENE,67,1.0,7.0,93,0.00,,---,0.00,0.00,VWS V14.01,2012-11-15 05:55:00,
2012-11-15 00:56:00,66.1,64.0,30.11,ENE,60,1.0,7.0,93,0.00,,---,0.00,0.00,VWS V14.01,2012-11-15 05:56:00,
2012-11-15 00:57:00,66.1,64.0,30.11,ENE,64,2.0,7.0,93,0.00,,---,0.00,0.00,VWS V14.01,2012-11-15 05:57:00,
2012-11-15 00:58:00,66.2,64.1,30.12,ENE,78,0.0,7.0,93,0.00,,---,0.00,0.00,VWS V14.01,2012-11-15 05:58:00,
2012-11-15 00:59:00,66.0,63.9,30.11,East,88,1.0,7.0,93,0.00,,---,0.00,0.00,VWS V14.01,2012-11-15 05:59:00,
2012-11-15 01:00:00,66.0,63.9,30.11,ENE,64,1.0,2.0,93,0.00,,---,0.00,0.00,VWS V14.01,2012-11-15 06:00:00,
2012-11-15 01:01:00,66.0,63.9,30.11,NE,50,1.0,2.0,93,0.00,,---,0.00,0.00,VWS V14.01,2012-11-15 06:01:00,
2012-11-15 01:02:00,66.0,63.9,30.11,NE,45,1.0,4.0,93,0.00,,---,0.00,0.00,VWS V14.01,2012-11-15 06:02:00,
2012-11-15 01:03:00,66.1,64.0,30.11,East,85,2.0,7.0,93,0.00,,---,0.00,0.00,VWS V14.01,2012-11-15 06:03:00,
2012-11-15 01:04:00,66.0,63.9,30.11,East,89,0.0,4.0,93,0.00,,---,0.00,0.00,VWS V14.01,2012-11-15 06:04:00,
2012-11-15 01:05:00,66.0,63.9,30.11,ENE,72,0.0,4.0,93,0.00,,---,0.00,0.00,VWS V14.01,2012-11-15 06:05:00,
2012-11-15 01:06:00,66.0,63.9,30.11,ESE,120,1.0,4.0,93,0.00,,---,0.00,0.00,VWS V14.01,2012-11-15 06:06:00,
2012-11-15 01:07:00,66.0,63.9,30.11,East,89,2.0,4.0,93,0.00,,---,0.00,0.00,VWS V14.01,2012-11-15 06:07:00,
2012-11-15 01:08:00,66.0,63.9,30.11,East,88,1.0,7.0,93,0.00,,---,0.00,0.00,VWS V14.01,2012-11-15 06:08:00,
2012-11-15 01:09:00,65.9,63.8,30.11,ENE,68,0.0,4.0,93,0.00,,---,0.00,0.00,VWS V14.01,2012-11-15 06:09:00,
2012-11-15 01:10:00,65.9,63.8,30.11,ENE,66,1.0,4.0,93,0.00,,---,0.00,0.00,VWS V14.01,2012-11-15 06:10:00,
2012-11-15 01:11:00,65.9,63.8,30.11,ENE,57,2.0,4.0,93,0.00,,---,0.00,0.00,VWS V14.01,2012-11-15 06:11:00,
2012-11-15 01:12:00,65.9,63.8,30.11,East,93,0.0,4.0,93,0.00,,---,0.00,0.00,VWS V14.01,2012-11-15 06:12:00,
2012-11-15 01:13:00,66.0,63.9,30.11,East,89,1.0,4.0,93,0.00,,---,0.00,0.00,VWS V14.01,2012-11-15 06:13:00,
2012-11-15 01:14:00,65.9,63.8,30.11,ENE,62,3.0,4.0,93,0.00,,---,0.00,0.00,VWS V14.01,2012-11-15 06:14:00,
2012-11-15 01:15:00,65.9,63.8,30.11,NE,44,1.0,4.0,93,0.00,,---,0.00,0.00,VWS V14.01,2012-11-15 06:15:00,
2012-11-15 01:16:00,65.9,63.8,30.11,North,359,0.0,4.0,93,0.00,,---,0.00,0.00,VWS V14.01,2012-11-15 06:16:00,
2012-11-15 01:17:00,65.9,63.8,30.11,North,359,0.0,4.0,93,0.00,,---,0.00,0.00,VWS V14.01,2012-11-15 06:17:00,
2012-11-15 01:18:00,65.9,63.8,30.11,ENE,75,5.0,5.0,93,0.00,,---,0.00,0.00,VWS V14.01,2012-11-15 06:18:00,
2012-11-15 01:19:00,66.0,63.9,30.11,ENE,69,1.0,4.0,93,0.00,,---,0.00,0.00,VWS V14.01,2012-11-15 06:19:00,
2012-11-15 01:20:00,65.9,63.8,30.11,NE,38,2.0,5.0,93,0.00,,---,0.00,0.00,VWS V14.01,2012-11-15 06:20:00,
2012-11-15 01:21:00,65.9,63.8,30.10,NE,46,2.0,5.0,93,0.00,,---,0.00,0.00,VWS V14.01,2012-11-15 06:21:00,
2012-11-15 01:22:00,65.9,63.8,30.10,ENE,78,1.0,5.0,93,0.00,,---,0.00,0.00,VWS V14.01,2012-11-15 06:22:00,
2012-11-15 01:23:00,65.9,63.8,30.10,East,81,2.0,5.0,93,0.00,,---,0.00,0.00,VWS V14.01,2012-11-15 06:23:00,
2012-11-15 01:24:00,65.9,63.8,30.11,East,101,0.0,4.0,93,0.00,,---,0.00,0.00,VWS V14.01,2012-11-15 06:24:00,
2012-11-15 01:25:00,65.8,63.7,30.10,East,95,3.0,5.0,93,0.00,,---,0.00,0.00,VWS V14.01,2012-11-15 06:25:00,
2012-11-15 01:26:00,65.8,63.7,30.10,NE,55,0.0,5.0,93,0.00,,---,0.00,0.00,VWS V14.01,2012-11-15 06:26:00,
2012-11-15 01:27:00,65.8,63.7,30.10,ESE,114,1.0,5.0,93,0.00,,---,0.00,0.00,VWS V14.01,2012-11-15 06:27:00,
2012-11-15 01:28:00,65.8,63.7,30.10,ESE,106,5.0,5.0,93,0.00,,---,0.00,0.00,VWS V14.01,2012-11-15 06:28:00,
2012-11-15 01:29:00,65.9,63.8,30.11,NE,48,2.0,5.0,93,0.00,,---,0.00,0.00,VWS V14.01,2012-11-15 06:29:00,
2012-11-15 01:30:00,65.8,63.7,30.10,NE,48,0.0,5.0,93,0.00,,---,0.00,0.00,VWS V14.01,2012-11-15 06:30:00,
2012-11-15 01:31:00,65.8,63.7,30.10,NE,48,0.0,5.0,93,0.00,,---,0.00,0.00,VWS V14.01,2012-11-15 06:31:00,
2012-11-15 01:32:00,65.8,63.7,30.10,NE,48,0.0,5.0,93,0.00,,---,0.00,0.00,VWS V14.01,2012-11-15 06:32:00,
2012-11-15 01:33:00,65.8,63.7,30.10,ESE,109,3.0,5.0,93,0.00,,---,0.00,0.00,VWS V14.01,2012-11-15 06:33:00,
2012-11-15 01:34:00,65.8,63.7,30.10,ENE,77,2.0,5.0,93,0.00,,---,0.00,0.00,VWS V14.01,2012-11-15 06:34:00,
2012-11-15 01:35:00,65.8,63.7,30.10,NE,42,0.0,5.0,93,0.00,,---,0.00,0.00,VWS V14.01,2012-11-15 06:35:00,
2012-11-15 01:36:00,65.8,63.7,30.10,NE,37,2.0,5.0,93,0.00,,---,0.00,0.00,VWS V14.01,2012-11-15 06:36:00,
2012-11-15 01:37:00,65.8,63.7,30.10,NE,41,0.0,5.0,93,0.00,,---,0.00,0.00,VWS V14.01,2012-11-15 06:37:00,
2012-11-15 01:38:00,65.8,63.7,30.10,NE,52,0.0,5.0,93,0.00,,---,0.00,0.00,VWS V14.01,2012-11-15 06:38:00,
2012-11-15 01:39:00,65.8,63.7,30.10,NE,48,0.0,5.0,93,0.00,,---,0.00,0.00,VWS V14.01,2012-11-15 06:39:00,
2012-11-15 01:40:00,65.8,63.7,30.10,NE,38,1.0,5.0,93,0.00,,---,0.00,0.00,VWS V14.01,2012-11-15 06:40:00,
2012-11-15 01:41:00,65.7,63.6,30.10,NE,43,2.0,5.0,93,0.00,,---,0.00,0.00,VWS V14.01,2012-11-15 06:41:00,
2012-11-15 01:42:00,65.7,63.6,30.10,NE,39,0.0,5.0,93,0.00,,---,0.00,0.00,VWS V14.01,2012-11-15 06:42:00,
2012-11-15 01:43:00,65.7,63.6,30.10,ENE,67,3.0,5.0,93,0.00,,---,0.00,0.00,VWS V14.01,2012-11-15 06:43:00,
2012-11-15 01:44:00,65.8,63.7,30.10,NE,42,0.0,5.0,93,0.00,,---,0.00,0.00,VWS V14.01,2012-11-15 06:44:00,
2012-11-15 01:45:00,65.7,63.6,30.10,NE,43,0.0,5.0,93,0.00,,---,0.00,0.00,VWS V14.01,2012-11-15 06:45:00,
2012-11-15 01:46:00,65.7,63.6,30.10,NE,43,0.0,5.0,93,0.00,,---,0.00,0.00,VWS V14.01,2012-11-15 06:46:00,
2012-11-15 01:47:00,65.7,63.6,30.10,ENE,67,2.0,5.0,93,0.00,,---,0.00,0.00,VWS V14.01,2012-11-15 06:47:00,
2012-11-15 01:48:00,65.7,63.6,30.10,ENE,78,0.0,5.0,93,0.00,,---,0.00,0.00,VWS V14.01,2012-11-15 06:48:00,
2012-11-15 01:49:00,65.8,63.7,30.10,East,94,1.0,5.0,93,0.00,,---,0.00,0.00,VWS V14.01,2012-11-15 06:49:00,
2012-11-15 01:50:00,65.7,63.6,30.10,ENE,57,0.0,5.0,93,0.00,,---,0.00,0.00,VWS V14.01,2012-11-15 06:50:00,
2012-11-15 01:51:00,65.7,63.6,30.10,ENE,69,1.0,5.0,93,0.00,,---,0.00,0.00,VWS V14.01,2012-11-15 06:51:00,
2012-11-15 01:52:00,65.7,63.6,30.10,ENE,70,2.0,5.0,93,0.00,,---,0.00,0.00,VWS V14.01,2012-11-15 06:52:00,
2012-11-15 01:53:00,65.7,63.6,30.10,East,79,0.0,5.0,93,0.00,,---,0.00,0.00,VWS V14.01,2012-11-15 06:53:00,
2012-11-15 01:54:00,65.7,63.6,30.10,NE,43,0.0,5.0,93,0.00,,---,0.00,0.00,VWS V14.01,2012-11-15 06:54:00,
2012-11-15 01:55:00,65.7,63.6,30.10,NE,45,0.0,5.0,93,0.00,,---,0.00,0.00,VWS V14.01,2012-11-15 06:55:00,
2012-11-15 01:56:00,65.7,63.6,30.10,NE,50,1.0,5.0,93,0.00,,---,0.00,0.00,VWS V14.01,2012-11-15 06:56:00,
2012-11-15 01:57:00,65.7,63.6,30.10,NNE,27,0.0,5.0,93,0.00,,---,0.00,0.00,VWS V14.01,2012-11-15 06:57:00,
2012-11-15 01:58:00,65.7,63.6,30.10,NE,47,4.0,5.0,93,0.00,,---,0.00,0.00,VWS V14.01,2012-11-15 06:58:00,
2012-11-15 01:59:00,65.7,63.6,30.10,ENE,69,1.0,5.0,93,0.00,,---,0.00,0.00,VWS V14.01,2012-11-15 06:59:00,
2012-11-15 02:00:00,65.7,63.6,30.10,ENE,75,2.0,5.0,93,0.00,,---,0.00,0.00,VWS V14.01,2012-11-15 07:00:00,
2012-11-15 02:01:00,65.7,63.6,30.10,ENE,69,0.0,0.0,93,0.00,,---,0.00,0.00,VWS V14.01,2012-11-15 07:01:00,
2012-11-15 02:02:00,65.6,63.5,30.10,ENE,69,0.0,0.0,93,0.00,,---,0.00,0.00,VWS V14.01,2012-11-15 07:02:00,
2012-11-15 02:03:00,65.6,63.5,30.09,ENE,70,2.0,2.0,93,0.00,,---,0.00,0.00,VWS V14.01,2012-11-15 07:03:00,
2012-11-15 02:04:00,65.6,63.5,30.09,East,96,3.0,6.0,93,0.00,,---,0.00,0.00,VWS V14.01,2012-11-15 07:04:00,
2012-11-15 02:05:00,65.7,63.6,30.10,NE,50,1.0,5.0,93,0.00,,---,0.00,0.00,VWS V14.01,2012-11-15 07:05:00,
2012-11-15 02:06:00,65.6,63.5,30.09,ENE,62,0.0,6.0,93,0.00,,---,0.00,0.00,VWS V14.01,2012-11-15 07:06:00,
2012-11-15 02:07:00,65.6,63.5,30.09,ENE,66,1.0,6.0,93,0.00,,---,0.00,0.00,VWS V14.01,2012-11-15 07:07:00,
2012-11-15 02:08:00,65.6,63.5,30.09,ENE,76,0.0,6.0,93,0.00,,---,0.00,0.00,VWS V14.01,2012-11-15 07:08:00,
2012-11-15 02:09:00,65.6,63.5,30.09,East,79,0.0,6.0,93,0.00,,---,0.00,0.00,VWS V14.01,2012-11-15 07:09:00,
2012-11-15 02:10:00,65.7,63.6,30.10,ENE,69,0.0,0.0,93,0.00,,---,0.00,0.00,VWS V14.01,2012-11-15 07:10:00,
2012-11-15 02:11:00,65.6,63.5,30.09,ENE,62,1.0,6.0,93,0.00,,---,0.00,0.00,VWS V14.01,2012-11-15 07:11:00,
2012-11-15 02:12:00,65.6,63.5,30.09,ENE,72,0.0,6.0,93,0.00,,---,0.00,0.00,VWS V14.01,2012-11-15 07:12:00,
2012-11-15 02:13:00,65.6,63.5,30.09,East,82,0.0,6.0,93,0.00,,---,0.00,0.00,VWS V14.01,2012-11-15 07:13:00,
2012-11-15 02:14:00,65.6,63.5,30.09,ENE,73,1.0,6.0,93,0.00,,---,0.00,0.00,VWS V14.01,2012-11-15 07:14:00,
2012-11-15 02:15:00,65.6,63.5,30.09,ENE,62,0.0,6.0,93,0.00,,---,0.00,0.00,VWS V14.01,2012-11-15 07:15:00,
2012-11-15 02:16:00,65.5,63.7,30.09,NE,43,0.0,6.0,94,0.00,,---,0.00,0.00,VWS V14.01,2012-11-15 07:16:00,
2012-11-15 02:17:00,65.5,63.7,30.09,ENE,62,1.0,6.0,94,0.00,,---,0.00,0.00,VWS V14.01,2012-11-15 07:17:00,
2012-11-15 02:18:00,65.5,63.7,30.09,ENE,62,0.0,6.0,94,0.00,,---,0.00,0.00,VWS V14.01,2012-11-15 07:18:00,
2012-11-15 02:19:00,65.5,63.7,30.09,ENE,62,0.0,6.0,94,0.00,,---,0.00,0.00,VWS V14.01,2012-11-15 07:19:00,
2012-11-15 02:20:00,65.6,63.8,30.09,ENE,62,2.0,6.0,94,0.00,,---,0.00,0.00,VWS V14.01,2012-11-15 07:20:00,
2012-11-15 02:21:00,65.5,63.7,30.09,ENE,62,1.0,6.0,94,0.00,,---,0.00,0.00,VWS V14.01,2012-11-15 07:21:00,
2012-11-15 02:22:00,65.5,63.7,30.09,ENE,63,1.0,6.0,94,0.00,,---,0.00,0.00,VWS V14.01,2012-11-15 07:22:00,
2012-11-15 02:23:00,65.5,63.7,30.09,ENE,69,1.0,6.0,94,0.00,,---,0.00,0.00,VWS V14.01,2012-11-15 07:23:00,
2012-11-15 02:24:00,65.5,63.7,30.09,ENE,65,2.0,6.0,94,0.00,,---,0.00,0.00,VWS V14.01,2012-11-15 07:24:00,
2012-11-15 02:25:00,65.5,63.7,30.09,NE,43,0.0,6.0,94,0.00,,---,0.00,0.00,VWS V14.01,2012-11-15 07:25:00,
2012-11-15 02:26:00,65.5,63.7,30.09,East,81,0.0,6.0,94,0.00,,---,0.00,0.00,VWS V14.01,2012-11-15 07:26:00,
2012-11-15 02:27:00,65.4,63.6,30.09,ENE,68,0.0,6.0,94,0.00,,---,0.00,0.00,VWS V14.01,2012-11-15 07:27:00,
2012-11-15 02:28:00,65.5,63.7,30.09,ENE,68,0.0,6.0,94,0.00,,---,0.00,0.00,VWS V14.01,2012-11-15 07:28:00,
2012-11-15 02:29:00,65.5,63.7,30.09,ENE,68,0.0,6.0,94,0.00,,---,0.00,0.00,VWS V14.01,2012-11-15 07:29:00,
2012-11-15 02:30:00,65.4,63.6,30.09,ENE,60,3.0,6.0,94,0.00,,---,0.00,0.00,VWS V14.01,2012-11-15 07:30:00,
2012-11-15 02:31:00,65.5,63.7,30.09,ENE,62,1.0,6.0,94,0.00,,---,0.00,0.00,VWS V14.01,2012-11-15 07:31:00,
2012-11-15 02:32:00,65.5,63.7,30.09,NE,52,0.0,6.0,94,0.00,,---,0.00,0.00,VWS V14.01,2012-11-15 07:32:00,
2012-11-15 02:33:00,65.4,63.6,30.09,NE,52,0.0,6.0,94,0.00,,---,0.00,0.00,VWS V14.01,2012-11-15 07:33:00,
2012-11-15 02:34:00,65.4,63.6,30.09,NE,52,1.0,6.0,94,0.00,,---,0.00,0.00,VWS V14.01,2012-11-15 07:34:00,
2012-11-15 02:35:00,65.4,63.6,30.09,ENE,59,2.0,6.0,94,0.00,,---,0.00,0.00,VWS V14.01,2012-11-15 07:35:00,
2012-11-15 02:36:00,65.5,63.7,30.09,ENE,68,0.0,6.0,94,0.00,,---,0.00,0.00,VWS V14.01,2012-11-15 07:36:00,
2012-11-15 02:37:00,65.4,63.6,30.09,ENE,64,0.0,6.0,94,0.00,,---,0.00,0.00,VWS V14.01,2012-11-15 07:37:00,
2012-11-15 02:38:00,65.4,63.6,30.09,North,358,3.0,6.0,94,0.00,,---,0.00,0.00,VWS V14.01,2012-11-15 07:38:00,
2012-11-15 02:39:00,65.4,63.6,30.09,ENE,66,0.0,6.0,94,0.00,,---,0.00,0.00,VWS V14.01,2012-11-15 07:39:00,
2012-11-15 02:40:00,65.4,63.6,30.09,East,96,2.0,6.0,94,0.00,,---,0.00,0.00,VWS V14.01,2012-11-15 07:40:00,
2012-11-15 02:41:00,65.5,63.7,30.09,NE,52,0.0,6.0,94,0.00,,---,0.00,0.00,VWS V14.01,2012-11-15 07:41:00,
2012-11-15 02:42:00,65.3,63.5,30.09,ESE,105,0.0,6.0,94,0.00,,---,0.00,0.00,VWS V14.01,2012-11-15 07:42:00,
2012-11-15 02:43:00,65.3,63.5,30.09,East,89,3.0,6.0,94,0.00,,---,0.00,0.00,VWS V14.01,2012-11-15 07:43:00,
2012-11-15 02:44:00,65.2,63.4,30.09,ESE,106,4.0,6.0,94,0.00,,---,0.00,0.00,VWS V14.01,2012-11-15 07:44:00,
2012-11-15 02:45:00,65.2,63.4,30.09,East,88,4.0,6.0,94,0.00,,---,0.00,0.00,VWS V14.01,2012-11-15 07:45:00,
2012-11-15 02:46:00,65.2,63.4,30.09,East,88,1.0,6.0,94,0.00,,---,0.00,0.00,VWS V14.01,2012-11-15 07:46:00,
2012-11-15 02:47:00,65.4,63.6,30.09,ENE,64,0.0,6.0,94,0.00,,---,0.00,0.00,VWS V14.01,2012-11-15 07:47:00,
2012-11-15 02:48:00,65.2,63.4,30.09,East,82,1.0,6.0,94,0.00,,---,0.00,0.00,VWS V14.01,2012-11-15 07:48:00,
2012-11-15 02:49:00,65.2,63.4,30.09,ENE,75,2.0,6.0,94,0.00,,---,0.00,0.00,VWS V14.01,2012-11-15 07:49:00,
2012-11-15 02:50:00,65.2,63.4,30.09,ENE,75,0.0,6.0,94,0.00,,---,0.00,0.00,VWS V14.01,2012-11-15 07:50:00,
2012-11-15 02:51:00,65.1,63.3,30.09,ENE,75,0.0,6.0,94,0.00,,---,0.00,0.00,VWS V14.01,2012-11-15 07:51:00,
2012-11-15 02:52:00,65.3,63.5,30.09,ESE,105,1.0,6.0,94,0.00,,---,0.00,0.00,VWS V14.01,2012-11-15 07:52:00,
2012-11-15 02:53:00,65.1,63.3,30.09,East,96,1.0,6.0,94,0.00,,---,0.00,0.00,VWS V14.01,2012-11-15 07:53:00,
2012-11-15 02:54:00,65.1,63.3,30.09,East,91,0.0,6.0,94,0.00,,---,0.00,0.00,VWS V14.01,2012-11-15 07:54:00,
2012-11-15 02:55:00,65.1,63.3,30.09,East,91,0.0,6.0,94,0.00,,---,0.00,0.00,VWS V14.01,2012-11-15 07:55:00,
2012-11-15 02:56:00,65.1,63.3,30.09,East,91,0.0,6.0,94,0.00,,---,0.00,0.00,VWS V14.01,2012-11-15 07:56:00,
2012-11-15 02:57:00,65.2,63.4,30.09,East,82,0.0,6.0,94,0.00,,---,0.00,0.00,VWS V14.01,2012-11-15 07:57:00,
2012-11-15 02:58:00,65.1,63.3,30.09,ENE,58,3.0,6.0,94,0.00,,---,0.00,0.00,VWS V14.01,2012-11-15 07:58:00,
2012-11-15 02:59:00,65.1,63.3,30.09,ENE,77,0.0,6.0,94,0.00,,---,0.00,0.00,VWS V14.01,2012-11-15 07:59:00,
2012-11-15 03:00:00,65.1,63.3,30.09,ENE,77,0.0,0.0,94,0.00,,---,0.00,0.00,VWS V14.01,2012-11-15 08:00:00,
2012-11-15 03:01:00,65.1,63.3,30.09,ENE,77,0.0,0.0,94,0.00,,---,0.00,0.00,VWS V14.01,2012-11-15 08:01:00,
2012-11-15 03:02:00,65.1,63.3,30.09,East,96,0.0,6.0,94,0.00,,---,0.00,0.00,VWS V14.01,2012-11-15 08:02:00,
2012-11-15 03:03:00,65.1,63.3,30.09,East,91,1.0,4.0,94,0.00,,---,0.00,0.00,VWS V14.01,2012-11-15 08:03:00,
2012-11-15 03:04:00,65.1,63.3,30.09,ENE,70,0.0,4.0,94,0.00,,---,0.00,0.00,VWS V14.01,2012-11-15 08:04:00,
2012-11-15 03:05:00,65.1,63.3,30.09,ENE,57,1.0,4.0,94,0.00,,---,0.00,0.00,VWS V14.01,2012-11-15 08:05:00,
2012-11-15 03:06:00,65.1,63.3,30.08,NE,46,2.0,4.0,94,0.00,,---,0.00,0.00,VWS V14.01,2012-11-15 08:06:00,
2012-11-15 03:07:00,65.1,63.3,30.09,ENE,74,1.0,6.0,94,0.00,,---,0.00,0.00,VWS V14.01,2012-11-15 08:07:00,
2012-11-15 03:08:00,65.0,63.2,30.09,NNE,25,1.0,4.0,94,0.00,,---,0.00,0.00,VWS V14.01,2012-11-15 08:08:00,
2012-11-15 03:09:00,65.0,63.2,30.08,SE,129,0.0,4.0,94,0.00,,---,0.00,0.00,VWS V14.01,2012-11-15 08:09:00,
2012-11-15 03:10:00,65.1,63.3,30.08,SE,127,0.0,4.0,94,0.00,,---,0.00,0.00,VWS V14.01,2012-11-15 08:10:00,
2012-11-15 03:11:00,65.0,63.2,30.08,East,90,1.0,4.0,94,0.00,,---,0.00,0.00,VWS V14.01,2012-11-15 08:11:00,
2012-11-15 03:12:00,65.1,63.3,30.09,North,3,2.0,4.0,94,0.00,,---,0.00,0.00,VWS V14.01,2012-11-15 08:12:00,
2012-11-15 03:13:00,65.0,63.2,30.08,East,95,1.0,4.0,94,0.00,,---,0.00,0.00,VWS V14.01,2012-11-15 08:13:00,
2012-11-15 03:14:00,65.0,63.2,30.09,ENE,64,1.0,4.0,94,0.00,,---,0.00,0.00,VWS V14.01,2012-11-15 08:14:00,
2012-11-15 03:15:00,65.0,63.2,30.08,ENE,64,0.0,4.0,94,0.00,,---,0.00,0.00,VWS V14.01,2012-11-15 08:15:00,
2012-11-15 03:16:00,65.0,63.2,30.08,ESE,102,2.0,4.0,94,0.00,,---,0.00,0.00,VWS V14.01,2012-11-15 08:16:00,
2012-11-15 03:17:00,65.0,63.2,30.09,NNE,17,0.0,4.0,94,0.00,,---,0.00,0.00,VWS V14.01,2012-11-15 08:17:00,
2012-11-15 03:18:00,65.0,63.2,30.08,ESE,102,0.0,4.0,94,0.00,,---,0.00,0.00,VWS V14.01,2012-11-15 08:18:00,
2012-11-15 03:19:00,65.0,63.2,30.08,ESE,102,0.0,4.0,94,0.00,,---,0.00,0.00,VWS V14.01,2012-11-15 08:19:00,
2012-11-15 03:20:00,65.0,63.2,30.08,ESE,102,0.0,4.0,94,0.00,,---,0.00,0.00,VWS V14.01,2012-11-15 08:20:00,
2012-11-15 03:21:00,65.0,63.2,30.08,NNW,345,1.0,4.0,94,0.00,,---,0.00,0.00,VWS V14.01,2012-11-15 08:21:00,
2012-11-15 03:22:00,65.0,63.2,30.08,East,95,1.0,4.0,94,0.00,,---,0.00,0.00,VWS V14.01,2012-11-15 08:22:00,
2012-11-15 03:23:00,65.0,63.5,30.09,NNE,18,2.0,4.0,95,0.00,,---,0.00,0.00,VWS V14.01,2012-11-15 08:23:00,
2012-11-15 03:24:00,65.0,63.2,30.09,SE,127,0.0,4.0,94,0.00,,---,0.00,0.00,VWS V14.01,2012-11-15 08:24:00,
2012-11-15 03:25:00,65.0,63.2,30.09,SE,127,0.0,4.0,94,0.00,,---,0.00,0.00,VWS V14.01,2012-11-15 08:25:00,
2012-11-15 03:26:00,65.0,63.2,30.08,ESE,110,1.0,4.0,94,0.00,,---,0.00,0.00,VWS V14.01,2012-11-15 08:26:00,
2012-11-15 03:27:00,65.0,63.2,30.08,ESE,102,0.0,4.0,94,0.00,,---,0.00,0.00,VWS V14.01,2012-11-15 08:27:00,
2012-11-15 03:28:00,65.0,63.2,30.09,ENE,62,4.0,4.0,94,0.00,,---,0.00,0.00,VWS V14.01,2012-11-15 08:28:00,
2012-11-15 03:29:00,64.9,63.1,30.08,East,85,0.0,4.0,94,0.00,,---,0.00,0.00,VWS V14.01,2012-11-15 08:29:00,
2012-11-15 03:30:00,64.9,63.1,30.08,ENE,78,0.0,4.0,94,0.00,,---,0.00,0.00,VWS V14.01,2012-11-15 08:30:00,
2012-11-15 03:31:00,64.9,63.1,30.08,ENE,78,0.0,4.0,94,0.00,,---,0.00,0.00,VWS V14.01,2012-11-15 08:31:00,
2012-11-15 03:32:00,65.0,63.5,30.08,NNW,345,0.0,4.0,95,0.00,,---,0.00,0.00,VWS V14.01,2012-11-15 08:32:00,
2012-11-15 03:33:00,64.9,63.1,30.08,ENE,77,1.0,4.0,94,0.00,,---,0.00,0.00,VWS V14.01,2012-11-15 08:33:00,
2012-11-15 03:34:00,64.9,63.1,30.08,ENE,77,0.0,4.0,94,0.00,,---,0.00,0.00,VWS V14.01,2012-11-15 08:34:00,
2012-11-15 03:35:00,64.9,63.1,30.08,NE,55,0.0,4.0,94,0.00,,---,0.00,0.00,VWS V14.01,2012-11-15 08:35:00,
2012-11-15 03:36:00,64.8,63.3,30.08,East,97,1.0,4.0,95,0.00,,---,0.00,0.00,VWS V14.01,2012-11-15 08:36:00,
2012-11-15 03:37:00,64.8,63.3,30.08,ESE,104,0.0,4.0,95,0.00,,---,0.00,0.00,VWS V14.01,2012-11-15 08:37:00,
2012-11-15 03:38:00,64.9,63.1,30.09,East,85,1.0,4.0,94,0.00,,---,0.00,0.00,VWS V14.01,2012-11-15 08:38:00,
2012-11-15 03:39:00,64.9,63.4,30.08,East,92,0.0,4.0,95,0.00,,---,0.00,0.00,VWS V14.01,2012-11-15 08:39:00,
2012-11-15 03:40:00,64.8,63.3,30.08,NE,39,0.0,4.0,95,0.00,,---,0.00,0.00,VWS V14.01,2012-11-15 08:40:00,
2012-11-15 03:41:00,64.8,63.3,30.08,NE,39,0.0,4.0,95,0.00,,---,0.00,0.00,VWS V14.01,2012-11-15 08:41:00,
2012-11-15 03:42:00,64.8,63.3,30.08,ENE,76,2.0,4.0,95,0.00,,---,0.00,0.00,VWS V14.01,2012-11-15 08:42:00,
2012-11-15 03:43:00,64.9,63.1,30.08,ENE,77,0.0,4.0,94,0.00,,---,0.00,0.00,VWS V14.01,2012-11-15 08:43:00,
2012-11-15 03:44:00,64.8,63.3,30.08,ESE,106,0.0,4.0,95,0.00,,---,0.00,0.00,VWS V14.01,2012-11-15 08:44:00,
2012-11-15 03:45:00,64.8,63.3,30.08,ESE,106,0.0,4.0,95,0.00,,---,0.00,0.00,VWS V14.01,2012-11-15 08:45:00,
2012-11-15 03:46:00,64.9,63.4,30.08,ESE,106,0.0,4.0,95,0.00,,---,0.00,0.00,VWS V14.01,2012-11-15 08:46:00,
2012-11-15 03:47:00,64.9,63.4,30.08,East,82,0.0,4.0,95,0.00,,---,0.00,0.00,VWS V14.01,2012-11-15 08:47:00,
2012-11-15 03:48:00,64.8,63.3,30.08,East,92,2.0,4.0,95,0.00,,---,0.00,0.00,VWS V14.01,2012-11-15 08:48:00,
2012-11-15 03:49:00,65.0,63.5,30.08,East,79,0.0,4.0,95,0.00,,---,0.00,0.00,VWS V14.01,2012-11-15 08:49:00,
2012-11-15 03:50:00,65.0,63.5,30.08,ENE,58,0.0,4.0,95,0.00,,---,0.00,0.00,VWS V14.01,2012-11-15 08:50:00,
2012-11-15 03:51:00,65.0,63.5,30.08,ENE,58,1.0,4.0,95,0.00,,---,0.00,0.00,VWS V14.01,2012-11-15 08:51:00,
2012-11-15 03:52:00,65.0,63.5,30.08,ENE,58,0.0,4.0,95,0.00,,---,0.00,0.00,VWS V14.01,2012-11-15 08:52:00,
2012-11-15 03:53:00,64.8,63.3,30.08,ESE,106,0.0,4.0,95,0.00,,---,0.00,0.00,VWS V14.01,2012-11-15 08:53:00,
2012-11-15 03:54:00,64.9,63.4,30.08,East,79,0.0,4.0,95,0.00,,---,0.00,0.00,VWS V14.01,2012-11-15 08:54:00,
2012-11-15 03:55:00,64.9,63.4,30.08,East,79,0.0,4.0,95,0.00,,---,0.00,0.00,VWS V14.01,2012-11-15 08:55:00,
2012-11-15 03:56:00,64.9,63.4,30.08,East,79,0.0,4.0,95,0.00,,---,0.00,0.00,VWS V14.01,2012-11-15 08:56:00,
2012-11-15 03:57:00,64.9,63.4,30.08,East,79,0.0,4.0,95,0.00,,---,0.00,0.00,VWS V14.01,2012-11-15 08:57:00,
2012-11-15 03:58:00,65.0,63.5,30.08,East,81,0.0,4.0,95,0.00,,---,0.00,0.00,VWS V14.01,2012-11-15 08:58:00,
2012-11-15 03:59:00,64.8,63.3,30.08,East,79,0.0,4.0,95,0.00,,---,0.00,0.00,VWS V14.01,2012-11-15 08:59:00,
2012-11-15 04:00:00,64.8,63.3,30.09,East,79,0.0,0.0,95,0.00,,---,0.00,0.00,VWS V14.01,2012-11-15 09:00:00,
2012-11-15 04:01:00,64.8,63.3,30.08,East,79,0.0,0.0,95,0.00,,---,0.00,0.00,VWS V14.01,2012-11-15 09:01:00,
2012-11-15 04:02:00,64.9,63.4,30.09,East,79,0.0,0.0,95,0.00,,---,0.00,0.00,VWS V14.01,2012-11-15 09:02:00,
2012-11-15 04:03:00,64.9,63.4,30.08,East,79,0.0,4.0,95,0.00,,---,0.00,0.00,VWS V14.01,2012-11-15 09:03:00,
2012-11-15 04:04:00,64.9,63.4,30.09,ENE,62,0.0,3.0,95,0.00,,---,0.00,0.00,VWS V14.01,2012-11-15 09:04:00,
2012-11-15 04:05:00,64.9,63.4,30.09,ENE,77,3.0,3.0,95,0.00,,---,0.00,0.00,VWS V14.01,2012-11-15 09:05:00,
2012-11-15 04:06:00,64.9,63.4,30.09,NE,41,0.0,4.0,95,0.00,,---,0.00,0.00,VWS V14.01,2012-11-15 09:06:00,
2012-11-15 04:07:00,64.9,63.4,30.09,East,87,2.0,4.0,95,0.00,,---,0.00,0.00,VWS V14.01,2012-11-15 09:07:00,
2012-11-15 04:08:00,64.9,63.4,30.08,East,79,0.0,4.0,95,0.00,,---,0.00,0.00,VWS V14.01,2012-11-15 09:08:00,
2012-11-15 04:09:00,64.9,63.4,30.09,NE,47,1.0,4.0,95,0.00,,---,0.00,0.00,VWS V14.01,2012-11-15 09:09:00,
2012-11-15 04:10:00,64.8,63.3,30.09,ENE,60,1.0,4.0,95,0.00,,---,0.00,0.00,VWS V14.01,2012-11-15 09:10:00,
2012-11-15 04:11:00,64.8,63.3,30.09,NE,41,1.0,4.0,95,0.00,,---,0.00,0.00,VWS V14.01,2012-11-15 09:11:00,
2012-11-15 04:12:00,64.8,63.3,30.09,ENE,63,2.0,4.0,95,0.00,,---,0.00,0.00,VWS V14.01,2012-11-15 09:12:00,
2012-11-15 04:13:00,64.9,63.4,30.09,ENE,62,0.0,3.0,95,0.00,,---,0.00,0.00,VWS V14.01,2012-11-15 09:13:00,
2012-11-15 04:14:00,64.8,63.3,30.09,East,89,0.0,4.0,95,0.00,,---,0.00,0.00,VWS V14.01,2012-11-15 09:14:00,
2012-11-15 04:15:00,64.8,63.3,30.09,East,89,0.0,4.0,95,0.00,,---,0.00,0.00,VWS V14.01,2012-11-15 09:15:00,
2012-11-15 04:16:00,64.7,63.2,30.09,NE,52,1.0,4.0,95,0.00,,---,0.00,0.00,VWS V14.01,2012-11-15 09:16:00,
2012-11-15 04:17:00,64.7,63.2,30.09,NE,50,1.0,4.0,95,0.00,,---,0.00,0.00,VWS V14.01,2012-11-15 09:17:00,
2012-11-15 04:18:00,64.8,63.3,30.09,NNE,26,0.0,4.0,95,0.00,,---,0.00,0.00,VWS V14.01,2012-11-15 09:18:00,
2012-11-15 04:19:00,64.9,63.4,30.09,NE,47,1.0,4.0,95,0.00,,---,0.00,0.00,VWS V14.01,2012-11-15 09:19:00,
2012-11-15 04:20:00,64.8,63.3,30.09,NNE,26,0.0,4.0,95,0.00,,---,0.00,0.00,VWS V14.01,2012-11-15 09:20:00,
2012-11-15 04:21:00,64.8,63.3,30.09,NNE,26,0.0,4.0,95,0.00,,---,0.00,0.00,VWS V14.01,2012-11-15 09:21:00,
2012-11-15 04:23:00,65.0,63.5,30.09,NNE,26,0.0,4.0,95,0.00,,---,0.00,0.00,VWS V14.01,2012-11-15 09:23:00,
2012-11-15 04:24:00,64.8,63.3,30.09,East,89,0.0,4.0,95,0.00,,---,0.00,0.00,VWS V14.01,2012-11-15 09:24:00,
2012-11-15 04:25:00,65.0,63.5,30.09,NNW,341,0.0,4.0,95,0.00,,---,0.00,0.00,VWS V14.01,2012-11-15 09:25:00,
2012-11-15 04:26:00,65.0,63.5,30.09,NNW,341,0.0,4.0,95,0.00,,---,0.00,0.00,VWS V14.01,2012-11-15 09:26:00,
2012-11-15 04:27:00,65.0,63.5,30.09,NNW,341,0.0,4.0,95,0.00,,---,0.00,0.00,VWS V14.01,2012-11-15 09:27:00,
2012-11-15 04:28:00,65.0,63.5,30.09,NNW,341,0.0,4.0,95,0.00,,---,0.00,0.00,VWS V14.01,2012-11-15 09:28:00,
2012-11-15 04:29:00,64.8,63.3,30.09,NNE,26,0.0,4.0,95,0.00,,---,0.00,0.00,VWS V14.01,2012-11-15 09:29:00,
2012-11-15 04:30:00,65.0,63.5,30.09,NNW,341,0.0,4.0,95,0.00,,---,0.00,0.00,VWS V14.01,2012-11-15 09:30:00,
2012-11-15 04:31:00,65.0,63.5,30.09,NE,52,0.0,4.0,95,0.00,,---,0.00,0.00,VWS V14.01,2012-11-15 09:31:00,
2012-11-15 04:32:00,65.0,63.5,30.09,NE,52,0.0,4.0,95,0.00,,---,0.00,0.00,VWS V14.01,2012-11-15 09:32:00,
2012-11-15 04:33:00,65.0,63.5,30.09,ENE,62,2.0,4.0,95,0.00,,---,0.00,0.00,VWS V14.01,2012-11-15 09:33:00,
2012-11-15 04:34:00,65.0,63.5,30.09,NNW,341,0.0,4.0,95,0.00,,---,0.00,0.00,VWS V14.01,2012-11-15 09:34:00,
2012-11-15 04:35:00,65.0,63.5,30.09,NNW,347,0.0,4.0,95,0.00,,---,0.00,0.00,VWS V14.01,2012-11-15 09:35:00,
2012-11-15 04:36:00,65.0,63.5,30.09,NNW,347,0.0,4.0,95,0.00,,---,0.00,0.00,VWS V14.01,2012-11-15 09:36:00,
2012-11-15 04:37:00,65.0,63.5,30.09,NNE,18,0.0,4.0,95,0.00,,---,0.00,0.00,VWS V14.01,2012-11-15 09:37:00,
2012-11-15 04:38:00,65.0,63.5,30.09,NNE,18,0.0,4.0,95,0.00,,---,0.00,0.00,VWS V14.01,2012-11-15 09:38:00,
2012-11-15 04:39:00,65.0,63.5,30.09,NNW,341,0.0,4.0,95,0.00,,---,0.00,0.00,VWS V14.01,2012-11-15 09:39:00,
2012-11-15 04:40:00,65.0,63.5,30.09,NNE,18,0.0,4.0,95,0.00,,---,0.00,0.00,VWS V14.01,2012-11-15 09:40:00,
2012-11-15 04:41:00,65.0,63.5,30.09,NNE,18,0.0,4.0,95,0.00,,---,0.00,0.00,VWS V14.01,2012-11-15 09:41:00,
2012-11-15 04:42:00,65.0,63.5,30.09,NNE,18,0.0,4.0,95,0.00,,---,0.00,0.00,VWS V14.01,2012-11-15 09:42:00,
2012-11-15 04:43:00,65.1,63.6,30.09,NNE,18,0.0,4.0,95,0.00,,---,0.00,0.00,VWS V14.01,2012-11-15 09:43:00,
2012-11-15 04:44:00,65.1,63.6,30.09,NNE,18,0.0,4.0,95,0.00,,---,0.00,0.00,VWS V14.01,2012-11-15 09:44:00,
2012-11-15 04:45:00,65.0,63.5,30.09,NNW,347,0.0,4.0,95,0.00,,---,0.00,0.00,VWS V14.01,2012-11-15 09:45:00,
2012-11-15 04:46:00,65.1,63.6,30.09,NNW,338,1.0,4.0,95,0.00,,---,0.00,0.00,VWS V14.01,2012-11-15 09:46:00,
2012-11-15 04:47:00,65.0,63.5,30.09,ENE,70,0.0,4.0,95,0.00,,---,0.00,0.00,VWS V14.01,2012-11-15 09:47:00,
2012-11-15 04:48:00,65.0,63.5,30.09,ENE,70,0.0,4.0,95,0.00,,---,0.00,0.00,VWS V14.01,2012-11-15 09:48:00,
2012-11-15 04:49:00,65.0,63.5,30.09,ENE,70,0.0,4.0,95,0.00,,---,0.00,0.00,VWS V14.01,2012-11-15 09:49:00,
2012-11-15 04:50:00,65.0,63.5,30.09,NNE,18,0.0,4.0,95,0.00,,---,0.00,0.00,VWS V14.01,2012-11-15 09:50:00,
2012-11-15 04:51:00,65.0,63.5,30.09,ENE,70,0.0,4.0,95,0.00,,---,0.00,0.00,VWS V14.01,2012-11-15 09:51:00,
2012-11-15 04:52:00,65.0,63.5,30.09,NW,322,0.0,4.0,95,0.00,,---,0.00,0.00,VWS V14.01,2012-11-15 09:52:00,
2012-11-15 04:53:00,65.0,63.5,30.09,NW,322,0.0,4.0,95,0.00,,---,0.00,0.00,VWS V14.01,2012-11-15 09:53:00,
2012-11-15 04:54:00,65.0,63.5,30.09,NW,322,0.0,4.0,95,0.00,,---,0.00,0.00,VWS V14.01,2012-11-15 09:54:00,
2012-11-15 04:55:00,65.1,63.6,30.09,NNW,335,0.0,4.0,95,0.00,,---,0.00,0.00,VWS V14.01,2012-11-15 09:55:00,
2012-11-15 04:56:00,65.0,63.5,30.09,NW,322,0.0,4.0,95,0.00,,---,0.00,0.00,VWS V14.01,2012-11-15 09:56:00,
2012-11-15 04:57:00,65.0,63.5,30.09,NW,322,0.0,4.0,95,0.00,,---,0.00,0.00,VWS V14.01,2012-11-15 09:57:00,
2012-11-15 04:58:00,65.0,63.5,30.09,NW,322,0.0,4.0,95,0.00,,---,0.00,0.00,VWS V14.01,2012-11-15 09:58:00,
2012-11-15 04:59:00,65.0,63.5,30.09,NW,322,0.0,4.0,95,0.00,,---,0.00,0.00,VWS V14.01,2012-11-15 09:59:00,
2012-11-15 05:00:00,65.0,63.5,30.09,ENE,70,0.0,4.0,95,0.00,,---,0.00,0.00,VWS V14.01,2012-11-15 10:00:00,
2012-11-15 05:01:00,65.0,63.5,30.09,NW,322,0.0,0.0,95,0.00,,---,0.00,0.00,VWS V14.01,2012-11-15 10:01:00,
2012-11-15 05:02:00,65.1,63.6,30.09,NW,322,0.0,0.0,95,0.00,,---,0.00,0.00,VWS V14.01,2012-11-15 10:02:00,
2012-11-15 05:03:00,65.1,63.6,30.09,NW,322,0.0,0.0,95,0.00,,---,0.00,0.00,VWS V14.01,2012-11-15 10:03:00,
2012-11-15 05:04:00,65.1,63.6,30.09,NW,322,0.0,0.0,95,0.00,,---,0.00,0.00,VWS V14.01,2012-11-15 10:04:00,
2012-11-15 05:05:00,65.0,63.5,30.09,NW,322,0.0,4.0,95,0.00,,---,0.00,0.00,VWS V14.01,2012-11-15 10:05:00,
2012-11-15 05:06:00,65.1,63.6,30.09,NW,322,0.0,0.0,95,0.00,,---,0.00,0.00,VWS V14.01,2012-11-15 10:06:00,
2012-11-15 05:07:00,65.1,63.6,30.09,NW,322,0.0,0.0,95,0.00,,---,0.00,0.00,VWS V14.01,2012-11-15 10:07:00,
2012-11-15 05:08:00,65.1,63.6,30.09,NW,322,0.0,0.0,95,0.00,,---,0.00,0.00,VWS V14.01,2012-11-15 10:08:00,
2012-11-15 05:09:00,65.1,63.6,30.10,NW,322,0.0,0.0,95,0.00,,---,0.00,0.00,VWS V14.01,2012-11-15 10:09:00,
2012-11-15 05:10:00,65.0,63.5,30.09,NW,322,0.0,0.0,95,0.00,,---,0.00,0.00,VWS V14.01,2012-11-15 10:10:00,
2012-11-15 05:11:00,65.1,63.6,30.10,NW,322,0.0,0.0,95,0.00,,---,0.00,0.00,VWS V14.01,2012-11-15 10:11:00,
2012-11-15 05:12:00,65.1,63.6,30.10,NW,322,0.0,0.0,95,0.00,,---,0.00,0.00,VWS V14.01,2012-11-15 10:12:00,
2012-11-15 05:13:00,65.1,63.6,30.10,NNW,331,0.0,0.0,95,0.00,,---,0.00,0.00,VWS V14.01,2012-11-15 10:13:00,
2012-11-15 05:14:00,65.1,63.6,30.10,NNW,331,0.0,0.0,95,0.00,,---,0.00,0.00,VWS V14.01,2012-11-15 10:14:00,
2012-11-15 05:15:00,65.1,63.6,30.10,NW,322,0.0,0.0,95,0.00,,---,0.00,0.00,VWS V14.01,2012-11-15 10:15:00,
2012-11-15 05:16:00,65.0,63.5,30.10,NNW,331,0.0,0.0,95,0.00,,---,0.00,0.00,VWS V14.01,2012-11-15 10:16:00,
2012-11-15 05:17:00,65.0,63.5,30.10,NNW,331,0.0,0.0,95,0.00,,---,0.00,0.00,VWS V14.01,2012-11-15 10:17:00,
2012-11-15 05:18:00,65.0,63.5,30.10,NNW,331,0.0,0.0,95,0.00,,---,0.00,0.00,VWS V14.01,2012-11-15 10:18:00,
2012-11-15 05:19:00,65.0,63.5,30.10,NNW,331,0.0,0.0,95,0.00,,---,0.00,0.00,VWS V14.01,2012-11-15 10:19:00,
2012-11-15 05:20:00,65.1,63.6,30.10,NW,322,0.0,0.0,95,0.00,,---,0.00,0.00,VWS V14.01,2012-11-15 10:20:00,
2012-11-15 05:21:00,65.0,63.5,30.10,NNW,331,0.0,0.0,95,0.00,,---,0.00,0.00,VWS V14.01,2012-11-15 10:21:00,
2012-11-15 05:22:00,65.0,63.5,30.10,NNW,331,0.0,0.0,95,0.00,,---,0.00,0.00,VWS V14.01,2012-11-15 10:22:00,
2012-11-15 05:23:00,65.0,63.5,30.10,NNW,331,0.0,0.0,95,0.00,,---,0.00,0.00,VWS V14.01,2012-11-15 10:23:00,
2012-11-15 05:24:00,65.0,63.5,30.10,NNW,331,0.0,0.0,95,0.00,,---,0.00,0.00,VWS V14.01,2012-11-15 10:24:00,
2012-11-15 05:25:00,65.0,63.5,30.10,NNW,331,0.0,0.0,95,0.00,,---,0.00,0.00,VWS V14.01,2012-11-15 10:25:00,
2012-11-15 05:26:00,65.0,63.5,30.10,North,11,0.0,0.0,95,0.00,,---,0.00,0.00,VWS V14.01,2012-11-15 10:26:00,
2012-11-15 05:27:00,65.0,63.5,30.10,North,11,0.0,0.0,95,0.00,,---,0.00,0.00,VWS V14.01,2012-11-15 10:27:00,
2012-11-15 05:28:00,65.0,63.5,30.10,North,11,0.0,0.0,95,0.00,,---,0.00,0.00,VWS V14.01,2012-11-15 10:28:00,
2012-11-15 05:29:00,65.0,63.5,30.10,North,11,0.0,0.0,95,0.00,,---,0.00,0.00,VWS V14.01,2012-11-15 10:29:00,
2012-11-15 05:30:00,65.0,63.5,30.10,NNW,331,0.0,0.0,95,0.00,,---,0.00,0.00,VWS V14.01,2012-11-15 10:30:00,
2012-11-15 05:31:00,65.0,63.5,30.10,North,11,0.0,0.0,95,0.00,,---,0.00,0.00,VWS V14.01,2012-11-15 10:31:00,
2012-11-15 05:32:00,65.1,63.6,30.10,North,11,0.0,0.0,95,0.00,,---,0.00,0.00,VWS V14.01,2012-11-15 10:32:00,
2012-11-15 05:33:00,65.1,63.6,30.10,North,11,0.0,0.0,95,0.00,,---,0.00,0.00,VWS V14.01,2012-11-15 10:33:00,
2012-11-15 05:34:00,65.1,63.6,30.10,North,11,0.0,0.0,95,0.00,,---,0.00,0.00,VWS V14.01,2012-11-15 10:34:00,
2012-11-15 05:35:00,65.0,63.5,30.10,North,11,0.0,0.0,95,0.00,,---,0.00,0.00,VWS V14.01,2012-11-15 10:35:00,
2012-11-15 05:36:00,65.1,63.6,30.10,North,11,0.0,0.0,95,0.00,,---,0.00,0.00,VWS V14.01,2012-11-15 10:36:00,
2012-11-15 05:37:00,65.0,63.5,30.10,North,11,0.0,0.0,95,0.00,,---,0.00,0.00,VWS V14.01,2012-11-15 10:37:00,
2012-11-15 05:38:00,65.0,63.5,30.10,NNE,25,0.0,1.0,95,0.00,,---,0.00,0.00,VWS V14.01,2012-11-15 10:38:00,
2012-11-15 05:39:00,65.0,63.5,30.10,NNE,25,0.0,1.0,95,0.00,,---,0.00,0.00,VWS V14.01,2012-11-15 10:39:00,
2012-11-15 05:40:00,65.0,63.5,30.10,North,11,0.0,0.0,95,0.00,,---,0.00,0.00,VWS V14.01,2012-11-15 10:40:00,
2012-11-15 05:41:00,65.0,63.5,30.10,NNE,25,0.0,1.0,95,0.00,,---,0.00,0.00,VWS V14.01,2012-11-15 10:41:00,
2012-11-15 05:42:00,65.0,63.5,30.10,NNE,25,0.0,1.0,95,0.00,,---,0.00,0.00,VWS V14.01,2012-11-15 10:42:00,
2012-11-15 05:43:00,65.0,63.5,30.10,NNE,25,0.0,1.0,95,0.00,,---,0.00,0.00,VWS V14.01,2012-11-15 10:43:00,
2012-11-15 05:44:00,65.0,63.5,30.10,NNE,25,0.0,1.0,95,0.00,,---,0.00,0.00,VWS V14.01,2012-11-15 10:44:00,
2012-11-15 05:45:00,65.1,63.6,30.10,North,11,0.0,0.0,95,0.00,,---,0.00,0.00,VWS V14.01,2012-11-15 10:45:00,
2012-11-15 05:46:00,65.0,63.8,30.10,NNE,25,0.0,1.0,96,0.00,,---,0.00,0.00,VWS V14.01,2012-11-15 10:46:00,
2012-11-15 05:47:00,65.0,63.8,30.10,NNE,25,0.0,1.0,96,0.00,,---,0.00,0.00,VWS V14.01,2012-11-15 10:47:00,
2012-11-15 05:48:00,65.0,63.8,30.10,NNE,25,0.0,1.0,96,0.00,,---,0.00,0.00,VWS V14.01,2012-11-15 10:48:00,
2012-11-15 05:49:00,65.0,63.8,30.10,NNE,25,0.0,1.0,96,0.00,,---,0.00,0.00,VWS V14.01,2012-11-15 10:49:00,
2012-11-15 05:50:00,65.0,63.8,30.10,NNE,25,0.0,1.0,96,0.00,,---,0.00,0.00,VWS V14.01,2012-11-15 10:50:00,
2012-11-15 05:51:00,65.0,63.5,30.10,NNE,25,0.0,1.0,95,0.00,,---,0.00,0.00,VWS V14.01,2012-11-15 10:51:00,
2012-11-15 05:52:00,65.0,63.8,30.10,NNE,25,0.0,1.0,96,0.00,,---,0.00,0.00,VWS V14.01,2012-11-15 10:52:00,
2012-11-15 05:53:00,65.1,63.9,30.10,NNE,25,0.0,1.0,96,0.00,,---,0.00,0.00,VWS V14.01,2012-11-15 10:53:00,
2012-11-15 05:54:00,65.1,63.9,30.10,NNE,25,0.0,1.0,96,0.00,,---,0.00,0.00,VWS V14.01,2012-11-15 10:54:00,
2012-11-15 05:55:00,65.1,63.9,30.10,NNE,25,0.0,1.0,96,0.00,,---,0.00,0.00,VWS V14.01,2012-11-15 10:55:00,
2012-11-15 05:56:00,65.0,63.8,30.10,NNE,25,0.0,1.0,96,0.00,,---,0.00,0.00,VWS V14.01,2012-11-15 10:56:00,
2012-11-15 05:57:00,65.0,63.5,30.11,NNW,334,0.0,4.0,95,0.00,,---,0.00,0.00,VWS V14.01,2012-11-15 10:57:00,
2012-11-15 05:58:00,65.0,63.5,30.11,NNW,334,1.0,4.0,95,0.00,,---,0.00,0.00,VWS V14.01,2012-11-15 10:58:00,
2012-11-15 05:59:00,64.9,63.4,30.11,NNW,334,0.0,4.0,95,0.00,,---,0.00,0.00,VWS V14.01,2012-11-15 10:59:00,
2012-11-15 06:00:00,64.9,63.4,30.11,NNW,334,0.0,0.0,95,0.00,,---,0.00,0.00,VWS V14.01,2012-11-15 11:00:00,
2012-11-15 06:01:00,65.0,63.8,30.10,NNE,25,0.0,1.0,96,0.00,,---,0.00,0.00,VWS V14.01,2012-11-15 11:01:00,
2012-11-15 06:02:00,64.9,63.4,30.11,NNW,334,0.0,0.0,95,0.00,,---,0.00,0.00,VWS V14.01,2012-11-15 11:02:00,
2012-11-15 06:03:00,64.9,63.4,30.11,NNW,334,1.0,1.0,95,0.00,,---,0.00,0.00,VWS V14.01,2012-11-15 11:03:00,
2012-11-15 06:04:00,64.9,63.4,30.11,NNW,334,0.0,1.0,95,0.00,,---,0.00,0.00,VWS V14.01,2012-11-15 11:04:00,
2012-11-15 06:05:00,64.9,63.4,30.11,NNW,334,0.0,1.0,95,0.00,,---,0.00,0.00,VWS V14.01,2012-11-15 11:05:00,
2012-11-15 06:06:00,65.1,63.6,30.10,NNW,334,0.0,4.0,95,0.00,,---,0.00,0.00,VWS V14.01,2012-11-15 11:06:00,
2012-11-15 06:07:00,64.8,63.3,30.10,NNW,334,0.0,1.0,95,0.00,,---,0.00,0.00,VWS V14.01,2012-11-15 11:07:00,
2012-11-15 06:08:00,64.8,63.3,30.11,NNW,334,1.0,1.0,95,0.00,,---,0.00,0.00,VWS V14.01,2012-11-15 11:08:00,
2012-11-15 06:09:00,64.8,63.3,30.11,NNW,334,0.0,1.0,95,0.00,,---,0.00,0.00,VWS V14.01,2012-11-15 11:09:00,
2012-11-15 06:10:00,64.8,63.3,30.11,NNW,334,0.0,1.0,95,0.00,,---,0.00,0.00,VWS V14.01,2012-11-15 11:10:00,
2012-11-15 06:11:00,64.9,63.4,30.11,NNW,334,0.0,0.0,95,0.00,,---,0.00,0.00,VWS V14.01,2012-11-15 11:11:00,
2012-11-15 06:12:00,64.8,63.3,30.11,NNW,334,0.0,1.0,95,0.00,,---,0.00,0.00,VWS V14.01,2012-11-15 11:12:00,
2012-11-15 06:13:00,64.8,63.3,30.11,NNW,336,0.0,1.0,95,0.00,,---,0.00,0.00,VWS V14.01,2012-11-15 11:13:00,
2012-11-15 06:14:00,64.8,63.3,30.11,NNW,336,0.0,1.0,95,0.00,,---,0.00,0.00,VWS V14.01,2012-11-15 11:14:00,
2012-11-15 06:15:00,64.9,63.4,30.11,NNW,336,0.0,1.0,95,0.00,,---,0.00,0.00,VWS V14.01,2012-11-15 11:15:00,
2012-11-15 06:16:00,64.8,63.3,30.11,NNW,334,0.0,1.0,95,0.00,,---,0.00,0.00,VWS V14.01,2012-11-15 11:16:00,
2012-11-15 06:17:00,64.9,63.7,30.11,NNW,336,0.0,1.0,96,0.00,,---,0.00,0.00,VWS V14.01,2012-11-15 11:17:00,
2012-11-15 06:18:00,64.9,63.7,30.11,NNW,336,0.0,1.0,96,0.00,,---,0.00,0.00,VWS V14.01,2012-11-15 11:18:00,
2012-11-15 06:19:00,65.0,63.8,30.11,NNW,337,0.0,1.0,96,0.00,,---,0.00,0.00,VWS V14.01,2012-11-15 11:19:00,
2012-11-15 06:20:00,65.0,63.8,30.11,NNW,337,0.0,1.0,96,0.00,,---,0.00,0.00,VWS V14.01,2012-11-15 11:20:00,
2012-11-15 06:21:00,64.8,63.3,30.11,NNW,334,0.0,1.0,95,0.00,,---,0.00,0.00,VWS V14.01,2012-11-15 11:21:00,
2012-11-15 06:22:00,65.0,63.8,30.11,NNW,337,0.0,1.0,96,0.00,,---,0.00,0.00,VWS V14.01,2012-11-15 11:22:00,
2012-11-15 06:23:00,64.9,63.7,30.11,NNW,337,0.0,1.0,96,0.00,,---,0.00,0.00,VWS V14.01,2012-11-15 11:23:00,
2012-11-15 06:24:00,64.9,63.7,30.11,NNW,337,0.0,1.0,96,0.00,,---,0.00,0.00,VWS V14.01,2012-11-15 11:24:00,
2012-11-15 06:25:00,64.9,63.7,30.11,NNW,337,0.0,1.0,96,0.00,,---,0.00,0.00,VWS V14.01,2012-11-15 11:25:00,
2012-11-15 06:26:00,64.9,63.7,30.11,NNW,336,0.0,1.0,96,0.00,,---,0.00,0.00,VWS V14.01,2012-11-15 11:26:00,
2012-11-15 06:27:00,64.9,63.7,30.11,NE,42,0.0,1.0,96,0.00,,---,0.00,0.00,VWS V14.01,2012-11-15 11:27:00,
2012-11-15 06:28:00,64.9,63.7,30.11,NE,42,0.0,1.0,96,0.00,,---,0.00,0.00,VWS V14.01,2012-11-15 11:28:00,
2012-11-15 06:29:00,64.9,63.7,30.11,NNW,331,1.0,2.0,96,0.00,,---,0.00,0.00,VWS V14.01,2012-11-15 11:29:00,
2012-11-15 06:30:00,64.9,63.7,30.11,NW,317,1.0,2.0,96,0.00,,---,0.00,0.00,VWS V14.01,2012-11-15 11:30:00,
2012-11-15 06:31:00,65.0,63.8,30.11,NNW,337,0.0,1.0,96,0.00,,---,0.00,0.00,VWS V14.01,2012-11-15 11:31:00,
2012-11-15 06:32:00,64.9,63.4,30.12,North,10,0.0,2.0,95,0.00,,---,0.00,0.00,VWS V14.01,2012-11-15 11:32:00,
2012-11-15 06:33:00,64.8,63.3,30.11,NW,319,0.0,2.0,95,0.00,,---,0.00,0.00,VWS V14.01,2012-11-15 11:33:00,
2012-11-15 06:34:00,64.9,63.7,30.11,NW,319,0.0,2.0,96,0.00,,---,0.00,0.00,VWS V14.01,2012-11-15 11:34:00,
2012-11-15 06:35:00,64.9,63.7,30.12,NW,319,0.0,2.0,96,0.00,,---,0.00,0.00,VWS V14.01,2012-11-15 11:35:00,
2012-11-15 06:36:00,64.9,63.7,30.11,NW,319,0.0,2.0,96,0.00,,---,0.00,0.00,VWS V14.01,2012-11-15 11:36:00,
2012-11-15 06:37:00,64.9,63.7,30.11,NE,42,0.0,1.0,96,0.00,,---,0.00,0.00,VWS V14.01,2012-11-15 11:37:00,
2012-11-15 06:38:00,64.9,63.7,30.12,NW,319,0.0,2.0,96,0.00,,---,0.00,0.00,VWS V14.01,2012-11-15 11:38:00,
2012-11-15 06:39:00,64.9,63.7,30.12,NW,319,0.0,2.0,96,0.00,,---,0.00,0.00,VWS V14.01,2012-11-15 11:39:00,
2012-11-15 06:40:00,64.9,63.7,30.11,NW,319,0.0,2.0,96,0.00,,---,0.00,0.00,VWS V14.01,2012-11-15 11:40:00,
2012-11-15 06:41:00,64.9,63.7,30.12,NW,319,0.0,2.0,96,0.00,,---,0.00,0.00,VWS V14.01,2012-11-15 11:41:00,
2012-11-15 06:42:00,64.9,63.4,30.12,NW,319,0.0,2.0,95,0.00,,---,0.00,0.00,VWS V14.01,2012-11-15 11:42:00,
2012-11-15 06:43:00,64.9,63.7,30.12,NW,319,0.0,2.0,96,0.00,,---,0.00,0.00,VWS V14.01,2012-11-15 11:43:00,
2012-11-15 06:44:00,64.9,63.7,30.12,NW,319,0.0,2.0,96,0.00,,---,0.00,0.00,VWS V14.01,2012-11-15 11:44:00,
2012-11-15 06:45:00,64.9,63.7,30.12,NW,319,0.0,2.0,96,0.00,,---,0.00,0.00,VWS V14.01,2012-11-15 11:45:00,
2012-11-15 06:46:00,64.9,63.7,30.12,NW,319,0.0,2.0,96,0.00,,---,0.00,0.00,VWS V14.01,2012-11-15 11:46:00,
2012-11-15 06:47:00,64.9,63.7,30.12,NW,319,0.0,2.0,96,0.00,,---,0.00,0.00,VWS V14.01,2012-11-15 11:47:00,
2012-11-15 06:48:00,64.9,63.7,30.12,NW,319,0.0,2.0,96,0.00,,---,0.00,0.00,VWS V14.01,2012-11-15 11:48:00,
2012-11-15 06:49:00,64.9,63.7,30.12,NW,319,0.0,2.0,96,0.00,,---,0.00,0.00,VWS V14.01,2012-11-15 11:49:00,
2012-11-15 06:50:00,64.9,63.7,30.12,NW,319,0.0,2.0,96,0.00,,---,0.00,0.00,VWS V14.01,2012-11-15 11:50:00,
2012-11-15 06:51:00,64.8,63.6,30.12,NW,319,0.0,2.0,96,0.00,,---,0.00,0.00,VWS V14.01,2012-11-15 11:51:00,
2012-11-15 06:52:00,64.8,63.6,30.12,NW,319,0.0,2.0,96,0.00,,---,0.00,0.00,VWS V14.01,2012-11-15 11:52:00,
2012-11-15 06:53:00,64.9,63.7,30.12,NW,319,0.0,2.0,96,0.00,,---,0.00,0.00,VWS V14.01,2012-11-15 11:53:00,
2012-11-15 06:54:00,64.8,63.6,30.12,NW,319,0.0,2.0,96,0.00,,---,0.00,0.00,VWS V14.01,2012-11-15 11:54:00,
2012-11-15 06:55:00,64.8,63.6,30.12,NW,319,0.0,2.0,96,0.00,,---,0.00,0.00,VWS V14.01,2012-11-15 11:55:00,
2012-11-15 06:56:00,64.8,63.6,30.12,NW,319,0.0,2.0,96,0.00,,---,0.00,0.00,VWS V14.01,2012-11-15 11:56:00,
2012-11-15 06:57:00,64.8,63.6,30.12,NW,319,0.0,2.0,96,0.00,,---,0.00,0.00,VWS V14.01,2012-11-15 11:57:00,
2012-11-15 06:58:00,64.9,63.7,30.12,NW,319,0.0,2.0,96,0.00,,---,0.00,0.00,VWS V14.01,2012-11-15 11:58:00,
2012-11-15 06:59:00,64.8,63.6,30.12,NW,319,0.0,2.0,96,0.00,,---,0.00,5.00,VWS V14.01,2012-11-15 11:59:00,
2012-11-15 07:00:00,64.8,63.6,30.12,NW,320,0.0,0.0,96,0.00,,---,0.00,5.00,VWS V14.01,2012-11-15 12:00:00,
2012-11-15 07:01:00,64.8,63.6,30.12,NW,320,0.0,1.0,96,0.00,,---,0.00,5.00,VWS V14.01,2012-11-15 12:01:00,
2012-11-15 07:02:00,64.9,63.7,30.12,NW,320,0.0,1.0,96,0.00,,---,0.00,5.00,VWS V14.01,2012-11-15 12:02:00,
2012-11-15 07:03:00,64.8,63.6,30.12,NW,319,0.0,2.0,96,0.00,,---,0.00,0.00,VWS V14.01,2012-11-15 12:03:00,
2012-11-15 07:04:00,64.8,63.6,30.12,NW,320,0.0,1.0,96,0.00,,---,0.00,7.00,VWS V14.01,2012-11-15 12:04:00,
2012-11-15 07:05:00,64.9,63.7,30.12,NW,320,0.0,1.0,96,0.00,,---,0.00,7.00,VWS V14.01,2012-11-15 12:05:00,
2012-11-15 07:06:00,64.9,63.7,30.12,NW,320,0.0,1.0,96,0.00,,---,0.00,9.00,VWS V14.01,2012-11-15 12:06:00,
2012-11-15 07:07:00,64.9,63.7,30.12,NW,320,0.0,1.0,96,0.00,,---,0.00,11.00,VWS V14.01,2012-11-15 12:07:00,
2012-11-15 07:08:00,64.8,63.6,30.12,NW,319,0.0,2.0,96,0.00,,---,0.00,5.00,VWS V14.01,2012-11-15 12:08:00,
2012-11-15 07:09:00,64.9,63.7,30.13,NW,320,0.0,1.0,96,0.00,,---,0.00,12.00,VWS V14.01,2012-11-15 12:09:00,
2012-11-15 07:10:00,64.8,63.6,30.13,NW,320,0.0,1.0,96,0.00,,---,0.00,12.00,VWS V14.01,2012-11-15 12:10:00,
2012-11-15 07:11:00,64.9,63.7,30.13,NW,320,0.0,1.0,96,0.00,,---,0.00,16.00,VWS V14.01,2012-11-15 12:11:00,
2012-11-15 07:12:00,64.8,63.6,30.13,NW,320,0.0,1.0,96,0.00,,---,0.00,14.00,VWS V14.01,2012-11-15 12:12:00,
2012-11-15 07:13:00,64.8,63.6,30.12,NW,320,0.0,1.0,96,0.00,,---,0.00,7.00,VWS V14.01,2012-11-15 12:13:00,
2012-11-15 07:14:00,64.8,63.6,30.13,NW,320,0.0,1.0,96,0.00,,---,0.00,16.00,VWS V14.01,2012-11-15 12:14:00,
2012-11-15 07:15:00,64.9,63.7,30.13,NW,320,0.0,1.0,96,0.00,,---,0.00,16.00,VWS V14.01,2012-11-15 12:15:00,
2012-11-15 07:16:00,64.9,63.7,30.13,East,79,0.0,1.0,96,0.00,,---,0.00,21.00,VWS V14.01,2012-11-15 12:16:00,
2012-11-15 07:17:00,64.9,63.7,30.13,East,80,0.0,1.0,96,0.00,,---,0.00,21.00,VWS V14.01,2012-11-15 12:17:00,
2012-11-15 07:18:00,64.9,63.7,30.12,NW,320,0.0,1.0,96,0.00,,---,0.00,12.00,VWS V14.01,2012-11-15 12:18:00,
2012-11-15 07:19:00,64.9,63.7,30.13,NW,320,0.0,1.0,96,0.00,,---,0.00,23.00,VWS V14.01,2012-11-15 12:19:00,
2012-11-15 07:20:00,64.8,63.6,30.13,NW,320,0.0,1.0,96,0.00,,---,0.00,23.00,VWS V14.01,2012-11-15 12:20:00,
2012-11-15 07:21:00,64.8,63.6,30.13,NW,320,0.0,1.0,96,0.00,,---,0.00,23.00,VWS V14.01,2012-11-15 12:21:00,
2012-11-15 07:22:00,64.8,63.6,30.13,NW,320,0.0,1.0,96,0.00,,---,0.00,23.00,VWS V14.01,2012-11-15 12:22:00,
2012-11-15 07:23:00,64.8,63.6,30.13,NW,320,0.0,1.0,96,0.00,,---,0.00,16.00,VWS V14.01,2012-11-15 12:23:00,
2012-11-15 07:24:00,64.9,63.7,30.13,East,86,1.0,1.0,96,0.00,,---,0.00,23.00,VWS V14.01,2012-11-15 12:24:00,
2012-11-15 07:25:00,64.9,63.7,30.13,East,83,0.0,1.0,96,0.00,,---,0.00,21.00,VWS V14.01,2012-11-15 12:25:00,
2012-11-15 07:26:00,64.9,63.7,30.13,East,83,0.0,1.0,96,0.00,,---,0.00,21.00,VWS V14.01,2012-11-15 12:26:00,
2012-11-15 07:27:00,64.9,63.7,30.13,East,83,0.0,1.0,96,0.00,,---,0.00,21.00,VWS V14.01,2012-11-15 12:27:00,
2012-11-15 07:28:00,64.9,63.7,30.13,NW,320,0.0,1.0,96,0.00,,---,0.00,23.00,VWS V14.01,2012-11-15 12:28:00,
2012-11-15 07:29:00,64.9,63.7,30.13,North,358,0.0,2.0,96,0.00,,---,0.00,21.00,VWS V14.01,2012-11-15 12:29:00,
2012-11-15 07:30:00,64.9,63.7,30.13,NW,310,0.0,2.0,96,0.00,,---,0.00,21.00,VWS V14.01,2012-11-15 12:30:00,
2012-11-15 07:31:00,64.9,63.7,30.13,WNW,287,0.0,2.0,96,0.00,,---,0.00,19.00,VWS V14.01,2012-11-15 12:31:00,
2012-11-15 07:32:00,64.9,63.7,30.13,North,360,0.0,2.0,96,0.00,,---,0.00,19.00,VWS V14.01,2012-11-15 12:32:00,
2012-11-15 07:33:00,64.9,63.7,30.13,North,360,0.0,2.0,96,0.00,,---,0.00,21.00,VWS V14.01,2012-11-15 12:33:00,
2012-11-15 07:34:00,64.9,63.7,30.13,East,83,0.0,1.0,96,0.00,,---,0.00,21.00,VWS V14.01,2012-11-15 12:34:00,
2012-11-15 07:35:00,64.8,63.6,30.14,NNW,338,0.0,2.0,96,0.00,,---,0.00,18.00,VWS V14.01,2012-11-15 12:35:00,
2012-11-15 07:36:00,64.8,63.6,30.13,NNW,338,0.0,2.0,96,0.00,,---,0.00,18.00,VWS V14.01,2012-11-15 12:36:00,
2012-11-15 07:37:00,64.7,63.5,30.13,NNW,338,0.0,2.0,96,0.00,,---,0.00,18.00,VWS V14.01,2012-11-15 12:37:00,
2012-11-15 07:38:00,64.7,63.5,30.13,NNW,338,0.0,2.0,96,0.00,,---,0.00,18.00,VWS V14.01,2012-11-15 12:38:00,
2012-11-15 07:39:00,64.9,63.7,30.13,NW,310,0.0,2.0,96,0.00,,---,0.00,21.00,VWS V14.01,2012-11-15 12:39:00,
2012-11-15 07:40:00,64.6,63.4,30.13,NNW,341,0.0,2.0,96,0.00,,---,0.00,30.00,VWS V14.01,2012-11-15 12:40:00,
2012-11-15 07:41:00,64.6,63.4,30.13,NNW,341,0.0,2.0,96,0.00,,---,0.00,39.00,VWS V14.01,2012-11-15 12:41:00,
2012-11-15 07:42:00,64.6,63.4,30.14,North,360,0.0,2.0,96,0.00,,---,0.00,37.00,VWS V14.01,2012-11-15 12:42:00,
2012-11-15 07:43:00,64.6,63.4,30.14,North,360,0.0,2.0,96,0.00,,---,0.00,35.00,VWS V14.01,2012-11-15 12:43:00,
2012-11-15 07:44:00,64.8,63.6,30.13,NNW,338,0.0,2.0,96,0.00,,---,0.00,18.00,VWS V14.01,2012-11-15 12:44:00,
2012-11-15 07:45:00,64.6,63.4,30.14,NNW,327,0.0,2.0,96,0.00,,---,0.00,35.00,VWS V14.01,2012-11-15 12:45:00,
2012-11-15 07:46:00,64.5,63.3,30.14,NNW,327,0.0,2.0,96,0.00,,---,0.00,40.00,VWS V14.01,2012-11-15 12:46:00,
2012-11-15 07:47:00,64.5,63.3,30.14,NNW,327,0.0,2.0,96,0.00,,---,0.00,44.00,VWS V14.01,2012-11-15 12:47:00,
2012-11-15 07:48:00,64.5,63.3,30.14,NNW,327,0.0,2.0,96,0.00,,---,0.00,44.00,VWS V14.01,2012-11-15 12:48:00,
2012-11-15 07:49:00,64.6,63.4,30.13,NNW,341,0.0,2.0,96,0.00,,---,0.00,30.00,VWS V14.01,2012-11-15 12:49:00,
2012-11-15 07:50:00,64.5,63.3,30.14,NNW,327,0.0,2.0,96,0.00,,---,0.00,46.00,VWS V14.01,2012-11-15 12:50:00,
2012-11-15 07:51:00,64.6,63.4,30.14,NNW,327,0.0,2.0,96,0.00,,---,0.00,46.00,VWS V14.01,2012-11-15 12:51:00,
2012-11-15 07:52:00,64.6,63.4,30.14,NNE,27,0.0,2.0,96,0.00,,---,0.00,47.00,VWS V14.01,2012-11-15 12:52:00,
2012-11-15 07:53:00,64.6,63.4,30.14,NNW,329,1.0,2.0,96,0.00,,---,0.00,47.00,VWS V14.01,2012-11-15 12:53:00,
2012-11-15 07:54:00,64.6,63.4,30.14,NNW,327,0.0,2.0,96,0.00,,---,0.00,35.00,VWS V14.01,2012-11-15 12:54:00,
2012-11-15 07:55:00,64.6,63.4,30.14,NNW,340,0.0,2.0,96,0.00,,---,0.00,51.00,VWS V14.01,2012-11-15 12:55:00,
2012-11-15 07:56:00,64.5,63.3,30.14,NNW,340,0.0,2.0,96,0.00,,---,0.00,53.00,VWS V14.01,2012-11-15 12:56:00,
2012-11-15 07:57:00,64.5,63.3,30.14,NNW,337,0.0,2.0,96,0.00,,---,0.00,53.00,VWS V14.01,2012-11-15 12:57:00,
2012-11-15 07:58:00,64.5,63.3,30.14,NNE,31,0.0,2.0,96,0.00,,---,0.00,51.00,VWS V14.01,2012-11-15 12:58:00,
2012-11-15 07:59:00,64.5,63.3,30.13,NNW,327,0.0,2.0,96,0.00,,---,0.00,46.00,VWS V14.01,2012-11-15 12:59:00,
2012-11-15 08:00:00,64.5,63.3,30.14,NNE,31,0.0,0.0,96,0.00,,---,0.00,51.00,VWS V14.01,2012-11-15 13:00:00,
2012-11-15 08:01:00,64.5,63.3,30.14,NNE,27,0.0,0.0,96,0.00,,---,0.00,65.00,VWS V14.01,2012-11-15 13:01:00,
2012-11-15 08:02:00,64.5,63.3,30.14,NNE,27,0.0,0.0,96,0.00,,---,0.00,62.00,VWS V14.01,2012-11-15 13:02:00,
2012-11-15 08:03:00,64.5,63.3,30.14,NNE,27,0.0,0.0,96,0.00,,---,0.00,58.00,VWS V14.01,2012-11-15 13:03:00,
2012-11-15 08:04:00,64.5,63.3,30.14,NNE,27,0.0,0.0,96,0.00,,---,0.00,65.00,VWS V14.01,2012-11-15 13:04:00,
2012-11-15 08:05:00,64.6,63.4,30.14,NNW,340,0.0,2.0,96,0.00,,---,0.00,53.00,VWS V14.01,2012-11-15 13:05:00,
2012-11-15 08:06:00,64.4,63.2,30.14,NNE,27,0.0,1.0,96,0.00,,---,0.00,62.00,VWS V14.01,2012-11-15 13:06:00,
2012-11-15 08:07:00,64.4,63.2,30.14,NNE,27,0.0,1.0,96,0.00,,---,0.00,62.00,VWS V14.01,2012-11-15 13:07:00,
2012-11-15 08:08:00,64.4,63.2,30.14,NE,39,0.0,1.0,96,0.00,,---,0.00,60.00,VWS V14.01,2012-11-15 13:08:00,
2012-11-15 08:09:00,64.5,63.3,30.14,NNE,12,0.0,1.0,96,0.00,,---,0.00,62.00,VWS V14.01,2012-11-15 13:09:00,
2012-11-15 08:10:00,64.5,63.3,30.14,NNE,27,0.0,0.0,96,0.00,,---,0.00,65.00,VWS V14.01,2012-11-15 13:10:00,
2012-11-15 08:11:00,64.5,63.3,30.14,North,11,0.0,1.0,96,0.00,,---,0.00,62.00,VWS V14.01,2012-11-15 13:11:00,
2012-11-15 08:12:00,64.5,63.3,30.14,North,11,0.0,1.0,96,0.00,,---,0.00,62.00,VWS V14.01,2012-11-15 13:12:00,
2012-11-15 08:13:00,64.5,63.3,30.14,NW,326,0.0,1.0,96,0.00,,---,0.00,63.00,VWS V14.01,2012-11-15 13:13:00,
2012-11-15 08:14:00,64.4,63.2,30.14,NW,326,0.0,1.0,96,0.00,,---,0.00,67.00,VWS V14.01,2012-11-15 13:14:00,
2012-11-15 08:15:00,64.4,63.2,30.14,NNE,27,0.0,1.0,96,0.00,,---,0.00,62.00,VWS V14.01,2012-11-15 13:15:00,
2012-11-15 08:16:00,64.4,63.2,30.14,NW,318,0.0,1.0,96,0.00,,---,0.00,72.00,VWS V14.01,2012-11-15 13:16:00,
2012-11-15 08:17:00,64.4,63.2,30.14,NW,318,0.0,1.0,96,0.00,,---,0.00,72.00,VWS V14.01,2012-11-15 13:17:00,
2012-11-15 08:18:00,64.4,63.2,30.14,NW,318,0.0,1.0,96,0.00,,---,0.00,69.00,VWS V14.01,2012-11-15 13:18:00,
2012-11-15 08:19:00,64.5,63.3,30.14,North,4,0.0,1.0,96,0.00,,---,0.00,69.00,VWS V14.01,2012-11-15 13:19:00,
2012-11-15 08:20:00,64.5,63.3,30.14,North,4,0.0,1.0,96,0.00,,---,0.00,65.00,VWS V14.01,2012-11-15 13:20:00,
2012-11-15 08:21:00,64.5,63.3,30.14,North,11,0.0,1.0,96,0.00,,---,0.00,62.00,VWS V14.01,2012-11-15 13:21:00,
2012-11-15 08:22:00,64.4,63.2,30.14,NW,318,0.0,1.0,96,0.00,,---,0.00,65.00,VWS V14.01,2012-11-15 13:22:00,
2012-11-15 08:23:00,64.3,63.1,30.14,NW,318,0.0,1.0,96,0.00,,---,0.00,67.00,VWS V14.01,2012-11-15 13:23:00,
2012-11-15 08:24:00,64.4,63.2,30.14,NW,318,0.0,1.0,96,0.00,,---,0.00,67.00,VWS V14.01,2012-11-15 13:24:00,
2012-11-15 08:25:00,64.4,63.2,30.14,NW,319,0.0,1.0,96,0.00,,---,0.00,77.00,VWS V14.01,2012-11-15 13:25:00,
2012-11-15 08:26:00,64.4,63.2,30.14,NW,318,0.0,1.0,96,0.00,,---,0.00,72.00,VWS V14.01,2012-11-15 13:26:00,
2012-11-15 08:27:00,64.5,63.3,30.14,NW,319,0.0,1.0,96,0.00,,---,0.00,81.00,VWS V14.01,2012-11-15 13:27:00,
2012-11-15 08:28:00,64.5,63.3,30.14,NW,319,0.0,1.0,96,0.00,,---,0.00,81.00,VWS V14.01,2012-11-15 13:28:00,
2012-11-15 08:29:00,64.5,63.3,30.14,NW,319,0.0,1.0,96,0.00,,---,0.00,88.00,VWS V14.01,2012-11-15 13:29:00,
2012-11-15 08:30:00,64.5,63.3,30.14,NW,319,0.0,1.0,96,0.00,,---,0.00,91.00,VWS V14.01,2012-11-15 13:30:00,
2012-11-15 08:31:00,64.4,63.2,30.14,NW,318,1.0,1.0,96,0.00,,---,0.00,65.00,VWS V14.01,2012-11-15 13:31:00,
2012-11-15 08:32:00,64.7,63.5,30.14,NW,319,0.0,1.0,96,0.00,,---,0.00,97.00,VWS V14.01,2012-11-15 13:32:00,
2012-11-15 08:33:00,64.7,63.5,30.14,NNW,336,2.0,2.0,96,0.00,,---,0.00,100.00,VWS V14.01,2012-11-15 13:33:00,
2012-11-15 08:34:00,64.7,63.5,30.14,NW,312,0.0,2.0,96,0.00,,---,0.00,97.00,VWS V14.01,2012-11-15 13:34:00,
2012-11-15 08:35:00,64.6,63.4,30.14,North,359,0.0,3.0,96,0.00,,---,0.00,91.00,VWS V14.01,2012-11-15 13:35:00,
2012-11-15 08:36:00,64.5,63.3,30.14,NW,319,0.0,1.0,96,0.00,,---,0.00,77.00,VWS V14.01,2012-11-15 13:36:00,
2012-11-15 08:37:00,64.6,63.4,30.14,North,359,0.0,3.0,96,0.00,,---,0.00,91.00,VWS V14.01,2012-11-15 13:37:00,
2012-11-15 08:38:00,64.5,63.3,30.14,North,359,0.0,3.0,96,0.00,,---,0.00,91.00,VWS V14.01,2012-11-15 13:38:00,
2012-11-15 08:39:00,64.6,63.4,30.14,North,359,0.0,3.0,96,0.00,,---,0.00,102.00,VWS V14.01,2012-11-15 13:39:00,
2012-11-15 08:40:00,64.6,63.4,30.14,North,359,0.0,3.0,96,0.00,,---,0.00,102.00,VWS V14.01,2012-11-15 13:40:00,
2012-11-15 08:41:00,64.7,63.5,30.14,NW,319,0.0,1.0,96,0.00,,---,0.00,97.00,VWS V14.01,2012-11-15 13:41:00,
2012-11-15 08:42:00,64.6,63.4,30.15,NNW,339,1.0,3.0,96,0.00,,---,0.00,105.00,VWS V14.01,2012-11-15 13:42:00,
2012-11-15 08:43:00,64.5,63.0,30.15,NNW,337,3.0,4.0,95,0.00,,---,0.00,135.00,VWS V14.01,2012-11-15 13:43:00,
2012-11-15 08:44:00,64.4,62.9,30.15,NNW,336,1.0,4.0,95,0.00,,---,0.00,125.00,VWS V14.01,2012-11-15 13:44:00,
2012-11-15 08:45:00,64.4,62.9,30.15,NNW,336,0.0,4.0,95,0.00,,---,0.00,120.00,VWS V14.01,2012-11-15 13:45:00,
2012-11-15 08:46:00,64.6,63.4,30.14,North,359,0.0,3.0,96,0.00,,---,0.00,91.00,VWS V14.01,2012-11-15 13:46:00,
2012-11-15 08:47:00,64.6,63.4,30.15,NNW,336,0.0,4.0,96,0.00,,---,0.00,130.00,VWS V14.01,2012-11-15 13:47:00,
2012-11-15 08:48:00,64.7,63.5,30.15,NNW,336,0.0,4.0,96,0.00,,---,0.00,160.00,VWS V14.01,2012-11-15 13:48:00,
2012-11-15 08:49:00,64.8,63.3,30.15,NNW,336,0.0,4.0,95,0.00,,---,0.00,144.00,VWS V14.01,2012-11-15 13:49:00,
2012-11-15 08:50:00,64.8,63.3,30.15,NNW,336,0.0,4.0,95,0.00,,---,0.00,127.00,VWS V14.01,2012-11-15 13:50:00,
2012-11-15 08:51:00,64.8,63.3,30.15,NNW,336,0.0,4.0,95,0.00,,---,0.00,114.00,VWS V14.01,2012-11-15 13:51:00,
2012-11-15 08:52:00,64.5,63.0,30.15,North,354,3.0,4.0,95,0.00,,---,0.00,135.00,VWS V14.01,2012-11-15 13:52:00,
2012-11-15 08:53:00,65.0,63.5,30.15,NNW,336,0.0,4.0,95,0.00,,---,0.00,114.00,VWS V14.01,2012-11-15 13:53:00,
2012-11-15 08:54:00,65.0,63.5,30.15,NNW,329,0.0,4.0,95,0.00,,---,0.00,114.00,VWS V14.01,2012-11-15 13:54:00,
2012-11-15 08:55:00,65.0,63.2,30.15,NE,43,1.0,4.0,94,0.00,,---,0.00,114.00,VWS V14.01,2012-11-15 13:55:00,
2012-11-15 08:56:00,64.9,63.1,30.15,NNW,334,3.0,4.0,94,0.00,,---,0.00,98.00,VWS V14.01,2012-11-15 13:56:00,
2012-11-15 08:57:00,64.7,63.5,30.15,NNW,336,0.0,4.0,96,0.00,,---,0.00,160.00,VWS V14.01,2012-11-15 13:57:00,
2012-11-15 08:58:00,64.9,63.1,30.15,NNW,330,0.0,4.0,94,0.00,,---,0.00,97.00,VWS V14.01,2012-11-15 13:58:00,
2012-11-15 08:59:00,64.9,63.1,30.15,NW,318,0.0,4.0,94,0.00,,---,0.00,97.00,VWS V14.01,2012-11-15 13:59:00,
2012-11-15 09:00:00,64.9,63.1,30.15,NW,317,0.0,0.0,94,0.00,,---,0.00,98.00,VWS V14.01,2012-11-15 14:00:00,
2012-11-15 09:01:00,64.9,63.1,30.15,North,356,0.0,2.0,94,0.00,,---,0.00,98.00,VWS V14.01,2012-11-15 14:01:00,
2012-11-15 09:02:00,64.9,63.4,30.15,NNW,336,0.0,4.0,95,0.00,,---,0.00,114.00,VWS V14.01,2012-11-15 14:02:00,
2012-11-15 09:03:00,64.8,63.0,30.15,NW,317,2.0,4.0,94,0.00,,---,0.00,130.00,VWS V14.01,2012-11-15 14:03:00,
2012-11-15 09:04:00,64.8,63.0,30.15,NW,322,0.0,4.0,94,0.00,,---,0.00,125.00,VWS V14.01,2012-11-15 14:04:00,
2012-11-15 09:05:00,64.8,63.0,30.15,NW,323,0.0,4.0,94,0.00,,---,0.00,125.00,VWS V14.01,2012-11-15 14:05:00,
2012-11-15 09:06:00,64.8,63.0,30.15,NE,54,0.0,4.0,94,0.00,,---,0.00,137.00,VWS V14.01,2012-11-15 14:06:00,
2012-11-15 09:07:00,64.9,63.1,30.15,NNW,330,0.0,4.0,94,0.00,,---,0.00,97.00,VWS V14.01,2012-11-15 14:07:00,
2012-11-15 09:08:00,64.9,63.1,30.15,NE,48,0.0,4.0,94,0.00,,---,0.00,148.00,VWS V14.01,2012-11-15 14:08:00,
2012-11-15 09:09:00,65.0,63.2,30.15,NE,48,0.0,4.0,94,0.00,,---,0.00,151.00,VWS V14.01,2012-11-15 14:09:00,
2012-11-15 09:10:00,65.2,63.4,30.15,NE,48,0.0,4.0,94,0.00,,---,0.00,149.00,VWS V14.01,2012-11-15 14:10:00,
2012-11-15 09:11:00,65.3,63.5,30.15,WNW,293,0.0,4.0,94,0.00,,---,0.00,149.00,VWS V14.01,2012-11-15 14:11:00,
2012-11-15 09:12:00,64.8,63.0,30.15,NW,314,3.0,4.0,94,0.00,,---,0.00,125.00,VWS V14.01,2012-11-15 14:12:00,
2012-11-15 09:13:00,65.3,63.2,30.15,NNW,333,0.0,4.0,93,0.00,,---,0.00,153.00,VWS V14.01,2012-11-15 14:13:00,
2012-11-15 09:14:00,65.4,63.3,30.15,NNW,333,0.0,4.0,93,0.00,,---,0.00,149.00,VWS V14.01,2012-11-15 14:14:00,
2012-11-15 09:15:00,65.4,63.3,30.15,NNW,333,0.0,4.0,93,0.00,,---,0.00,146.00,VWS V14.01,2012-11-15 14:15:00,
2012-11-15 09:16:00,65.5,63.4,30.15,NNW,329,0.0,4.0,93,0.00,,---,0.00,153.00,VWS V14.01,2012-11-15 14:16:00,
2012-11-15 09:17:00,64.9,63.1,30.15,NE,48,0.0,4.0,94,0.00,,---,0.00,148.00,VWS V14.01,2012-11-15 14:17:00,
2012-11-15 09:18:00,65.5,63.4,30.15,NE,35,0.0,4.0,93,0.00,,---,0.00,155.00,VWS V14.01,2012-11-15 14:18:00,
2012-11-15 09:19:00,65.5,63.1,30.15,NE,45,1.0,4.0,92,0.00,,---,0.00,156.00,VWS V14.01,2012-11-15 14:19:00,
2012-11-15 09:20:00,65.5,63.1,30.15,NE,45,0.0,4.0,92,0.00,,---,0.00,156.00,VWS V14.01,2012-11-15 14:20:00,
2012-11-15 09:21:00,65.5,63.1,30.15,ENE,62,0.0,4.0,92,0.00,,---,0.00,174.00,VWS V14.01,2012-11-15 14:21:00,
2012-11-15 09:22:00,65.3,63.2,30.15,NNW,333,0.0,4.0,93,0.00,,---,0.00,153.00,VWS V14.01,2012-11-15 14:22:00,
2012-11-15 09:23:00,65.6,63.5,30.16,NE,55,0.0,4.0,93,0.00,,---,0.00,167.00,VWS V14.01,2012-11-15 14:23:00,
2012-11-15 09:24:00,65.8,63.7,30.16,NE,55,0.0,4.0,93,0.00,,---,0.00,162.00,VWS V14.01,2012-11-15 14:24:00,
2012-11-15 09:25:00,65.9,63.8,30.15,NE,55,0.0,4.0,93,0.00,,---,0.00,156.00,VWS V14.01,2012-11-15 14:25:00,
2012-11-15 09:26:00,65.9,63.8,30.16,NW,309,1.0,4.0,93,0.00,,---,0.00,156.00,VWS V14.01,2012-11-15 14:26:00,
2012-11-15 09:27:00,65.5,63.4,30.15,NE,35,0.0,4.0,93,0.00,,---,0.00,155.00,VWS V14.01,2012-11-15 14:27:00,
2012-11-15 09:28:00,65.8,63.4,30.16,NW,309,0.0,4.0,92,0.00,,---,0.00,156.00,VWS V14.01,2012-11-15 14:28:00,
2012-11-15 09:29:00,65.8,63.4,30.16,NNE,21,0.0,4.0,92,0.00,,---,0.00,158.00,VWS V14.01,2012-11-15 14:29:00,
2012-11-15 09:30:00,65.8,63.4,30.16,NNE,21,0.0,4.0,92,0.00,,---,0.00,158.00,VWS V14.01,2012-11-15 14:30:00,
2012-11-15 09:31:00,65.8,63.4,30.16,NNE,21,1.0,4.0,92,0.00,,---,0.00,158.00,VWS V14.01,2012-11-15 14:31:00,
2012-11-15 09:32:00,65.9,63.5,30.16,East,81,0.0,4.0,92,0.00,,---,0.00,162.00,VWS V14.01,2012-11-15 14:32:00,
2012-11-15 09:33:00,65.6,63.5,30.16,NE,55,0.0,4.0,93,0.00,,---,0.00,167.00,VWS V14.01,2012-11-15 14:33:00,
2012-11-15 09:34:00,66.0,63.6,30.16,East,81,0.0,4.0,92,0.00,,---,0.00,156.00,VWS V14.01,2012-11-15 14:34:00,
2012-11-15 09:35:00,66.0,63.6,30.16,East,81,0.0,4.0,92,0.00,,---,0.00,156.00,VWS V14.01,2012-11-15 14:35:00,
2012-11-15 09:36:00,66.1,63.7,30.16,East,81,0.0,4.0,92,0.00,,---,0.00,156.00,VWS V14.01,2012-11-15 14:36:00,
2012-11-15 09:37:00,66.1,63.7,30.16,NE,43,2.0,6.0,92,0.00,,---,0.00,156.00,VWS V14.01,2012-11-15 14:37:00,
2012-11-15 09:38:00,65.8,63.7,30.16,NNE,21,0.0,4.0,93,0.00,,---,0.00,158.00,VWS V14.01,2012-11-15 14:38:00,
2012-11-15 09:39:00,66.0,63.3,30.16,East,79,0.0,6.0,91,0.00,,---,0.00,156.00,VWS V14.01,2012-11-15 14:39:00,
2012-11-15 09:40:00,65.9,63.2,30.16,NNE,20,1.0,6.0,91,0.00,,---,0.00,153.00,VWS V14.01,2012-11-15 14:40:00,
2012-11-15 09:41:00,65.9,63.2,30.16,East,91,0.0,6.0,91,0.00,,---,0.00,155.00,VWS V14.01,2012-11-15 14:41:00,
2012-11-15 09:42:00,65.9,63.2,30.16,NNE,27,2.0,6.0,91,0.00,,---,0.00,156.00,VWS V14.01,2012-11-15 14:42:00,
2012-11-15 09:43:00,66.0,63.6,30.16,East,81,0.0,4.0,92,0.00,,---,0.00,156.00,VWS V14.01,2012-11-15 14:43:00,
2012-11-15 09:44:00,65.9,63.2,30.16,East,81,0.0,6.0,91,0.00,,---,0.00,155.00,VWS V14.01,2012-11-15 14:44:00,
2012-11-15 09:45:00,66.0,63.3,30.16,East,81,0.0,6.0,91,0.00,,---,0.00,148.00,VWS V14.01,2012-11-15 14:45:00,
2012-11-15 09:46:00,66.0,63.3,30.16,NNW,335,0.0,6.0,91,0.00,,---,0.00,149.00,VWS V14.01,2012-11-15 14:46:00,
2012-11-15 09:47:00,66.0,63.3,30.16,NNW,335,0.0,6.0,91,0.00,,---,0.00,151.00,VWS V14.01,2012-11-15 14:47:00,
2012-11-15 09:48:00,66.0,63.3,30.16,East,79,0.0,6.0,91,0.00,,---,0.00,156.00,VWS V14.01,2012-11-15 14:48:00,
2012-11-15 09:49:00,66.1,63.4,30.16,NE,52,0.0,6.0,91,0.00,,---,0.00,149.00,VWS V14.01,2012-11-15 14:49:00,
2012-11-15 09:50:00,66.1,63.7,30.16,NE,52,0.0,6.0,92,0.00,,---,0.00,146.00,VWS V14.01,2012-11-15 14:50:00,
2012-11-15 09:51:00,66.2,63.8,30.16,NE,52,0.0,6.0,92,0.00,,---,0.00,146.00,VWS V14.01,2012-11-15 14:51:00,
2012-11-15 09:52:00,66.3,63.9,30.16,NE,52,0.0,6.0,92,0.00,,---,0.00,142.00,VWS V14.01,2012-11-15 14:52:00,
2012-11-15 09:53:00,65.9,63.2,30.16,East,81,0.0,6.0,91,0.00,,---,0.00,155.00,VWS V14.01,2012-11-15 14:53:00,
2012-11-15 09:54:00,66.4,64.0,30.16,NE,41,0.0,6.0,92,0.00,,---,0.00,135.00,VWS V14.01,2012-11-15 14:54:00,
2012-11-15 09:55:00,66.4,64.0,30.16,NE,41,0.0,6.0,92,0.00,,---,0.00,135.00,VWS V14.01,2012-11-15 14:55:00,
2012-11-15 09:56:00,66.5,64.1,30.17,NE,41,0.0,6.0,92,0.00,,---,0.00,132.00,VWS V14.01,2012-11-15 14:56:00,
2012-11-15 09:57:00,66.4,64.0,30.17,NE,41,0.0,6.0,92,0.00,,---,0.00,132.00,VWS V14.01,2012-11-15 14:57:00,
2012-11-15 09:58:00,66.1,63.4,30.16,NE,52,0.0,6.0,91,0.00,,---,0.00,149.00,VWS V14.01,2012-11-15 14:58:00,
2012-11-15 09:59:00,66.2,63.5,30.17,NNE,24,1.0,6.0,91,0.00,,---,0.00,132.00,VWS V14.01,2012-11-15 14:59:00,
2012-11-15 10:00:00,66.2,63.5,30.17,NNE,24,1.0,1.0,91,0.00,,---,0.00,116.00,VWS V14.01,2012-11-15 15:00:00,
2012-11-15 10:01:00,66.1,63.4,30.17,North,8,0.0,1.0,91,0.00,,---,0.00,127.00,VWS V14.01,2012-11-15 15:01:00,
2012-11-15 10:02:00,66.1,63.4,30.17,North,8,0.0,1.0,91,0.00,,---,0.00,132.00,VWS V14.01,2012-11-15 15:02:00,
2012-11-15 10:03:00,66.4,64.0,30.16,NE,41,0.0,6.0,92,0.00,,---,0.00,135.00,VWS V14.01,2012-11-15 15:03:00,
2012-11-15 10:04:00,65.9,63.2,30.17,NNW,345,0.0,1.0,91,0.00,,---,0.00,132.00,VWS V14.01,2012-11-15 15:04:00,
2012-11-15 10:05:00,65.9,63.5,30.16,NNW,345,0.0,1.0,92,0.00,,---,0.00,128.00,VWS V14.01,2012-11-15 15:05:00,
2012-11-15 10:06:00,65.9,63.5,30.17,NNW,345,0.0,1.0,92,0.00,,---,0.00,127.00,VWS V14.01,2012-11-15 15:06:00,
2012-11-15 10:07:00,65.9,63.5,30.17,NNW,345,0.0,1.0,92,0.00,,---,0.00,134.00,VWS V14.01,2012-11-15 15:07:00,
2012-11-15 10:08:00,65.9,63.5,30.17,NNW,345,0.0,1.0,92,0.00,,---,0.00,134.00,VWS V14.01,2012-11-15 15:08:00,
2012-11-15 10:09:00,66.3,63.6,30.17,NNE,24,0.0,6.0,91,0.00,,---,0.00,132.00,VWS V14.01,2012-11-15 15:09:00,
2012-11-15 10:10:00,65.9,63.5,30.16,NNW,345,0.0,1.0,92,0.00,,---,0.00,134.00,VWS V14.01,2012-11-15 15:10:00,
2012-11-15 10:11:00,65.9,63.5,30.16,NNW,345,0.0,1.0,92,0.00,,---,0.00,134.00,VWS V14.01,2012-11-15 15:11:00,
2012-11-15 10:12:00,65.9,63.5,30.16,NNW,345,0.0,1.0,92,0.00,,---,0.00,146.00,VWS V14.01,2012-11-15 15:12:00,
2012-11-15 10:13:00,65.9,63.2,30.17,NNW,345,0.0,1.0,91,0.00,,---,0.00,132.00,VWS V14.01,2012-11-15 15:13:00,
2012-11-15 10:14:00,65.9,63.5,30.16,NNW,347,0.0,1.0,92,0.00,,---,0.00,146.00,VWS V14.01,2012-11-15 15:14:00,
2012-11-15 10:15:00,65.9,63.5,30.16,NNW,347,0.0,1.0,92,0.00,,---,0.00,141.00,VWS V14.01,2012-11-15 15:15:00,
2012-11-15 10:16:00,65.9,63.5,30.16,North,351,0.0,1.0,92,0.00,,---,0.00,141.00,VWS V14.01,2012-11-15 15:16:00,
2012-11-15 10:17:00,65.9,63.5,30.16,North,349,0.0,1.0,92,0.00,,---,0.00,141.00,VWS V14.01,2012-11-15 15:17:00,
2012-11-15 10:18:00,65.9,63.5,30.16,North,349,0.0,1.0,92,0.00,,---,0.00,141.00,VWS V14.01,2012-11-15 15:18:00,
2012-11-15 10:19:00,65.9,63.5,30.16,NNW,345,0.0,1.0,92,0.00,,---,0.00,134.00,VWS V14.01,2012-11-15 15:19:00,
2012-11-15 10:20:00,65.9,63.5,30.16,North,349,1.0,1.0,92,0.00,,---,0.00,141.00,VWS V14.01,2012-11-15 15:20:00,
2012-11-15 10:21:00,65.9,63.5,30.16,North,349,0.0,1.0,92,0.00,,---,0.00,135.00,VWS V14.01,2012-11-15 15:21:00,
2012-11-15 10:22:00,65.8,63.1,30.16,North,349,0.0,1.0,91,0.00,,---,0.00,141.00,VWS V14.01,2012-11-15 15:22:00,
2012-11-15 10:23:00,65.8,63.4,30.16,NNE,14,1.0,1.0,92,0.00,,---,0.00,146.00,VWS V14.01,2012-11-15 15:23:00,
2012-11-15 10:24:00,65.9,63.5,30.16,NNW,347,0.0,1.0,92,0.00,,---,0.00,141.00,VWS V14.01,2012-11-15 15:24:00,
2012-11-15 10:25:00,65.7,63.3,30.17,NE,50,1.0,2.0,92,0.00,,---,0.00,141.00,VWS V14.01,2012-11-15 15:25:00,
2012-11-15 10:26:00,65.8,63.4,30.17,NE,50,0.0,2.0,92,0.00,,---,0.00,139.00,VWS V14.01,2012-11-15 15:26:00,
2012-11-15 10:27:00,65.8,63.4,30.17,NE,50,0.0,2.0,92,0.00,,---,0.00,141.00,VWS V14.01,2012-11-15 15:27:00,
2012-11-15 10:28:00,65.8,63.4,30.16,NNW,331,1.0,2.0,92,0.00,,---,0.00,141.00,VWS V14.01,2012-11-15 15:28:00,
2012-11-15 10:29:00,65.9,63.5,30.16,North,349,0.0,1.0,92,0.00,,---,0.00,141.00,VWS V14.01,2012-11-15 15:29:00,
2012-11-15 10:30:00,65.8,63.4,30.16,NW,326,2.0,5.0,92,0.00,,---,0.00,160.00,VWS V14.01,2012-11-15 15:30:00,
2012-11-15 10:31:00,65.8,63.1,30.16,NW,326,0.0,5.0,91,0.00,,---,0.00,162.00,VWS V14.01,2012-11-15 15:31:00,
2012-11-15 10:32:00,65.8,63.1,30.16,NW,326,0.0,5.0,91,0.00,,---,0.00,162.00,VWS V14.01,2012-11-15 15:32:00,
2012-11-15 10:33:00,65.8,63.4,30.16,NW,326,0.0,5.0,92,0.00,,---,0.00,156.00,VWS V14.01,2012-11-15 15:33:00,
2012-11-15 10:34:00,65.8,63.4,30.16,NW,326,0.0,5.0,92,0.00,,---,0.00,155.00,VWS V14.01,2012-11-15 15:34:00,
2012-11-15 10:35:00,65.9,63.5,30.16,NNE,33,2.0,5.0,92,0.00,,---,0.00,155.00,VWS V14.01,2012-11-15 15:35:00,
2012-11-15 10:36:00,65.9,63.2,30.16,ESE,114,0.0,5.0,91,0.00,,---,0.00,163.00,VWS V14.01,2012-11-15 15:36:00,
2012-11-15 10:37:00,65.9,63.2,30.16,North,2,0.0,5.0,91,0.00,,---,0.00,165.00,VWS V14.01,2012-11-15 15:37:00,
2012-11-15 10:38:00,65.9,63.5,30.16,North,2,0.0,5.0,92,0.00,,---,0.00,163.00,VWS V14.01,2012-11-15 15:38:00,
2012-11-15 10:39:00,65.9,63.5,30.16,North,2,0.0,5.0,92,0.00,,---,0.00,163.00,VWS V14.01,2012-11-15 15:39:00,
2012-11-15 10:40:00,65.8,63.4,30.16,NW,326,2.0,5.0,92,0.00,,---,0.00,155.00,VWS V14.01,2012-11-15 15:40:00,
2012-11-15 10:41:00,66.0,63.3,30.16,NNW,327,0.0,5.0,91,0.00,,---,0.00,163.00,VWS V14.01,2012-11-15 15:41:00,
2012-11-15 10:42:00,66.0,63.3,30.16,NNW,327,0.0,5.0,91,0.00,,---,0.00,163.00,VWS V14.01,2012-11-15 15:42:00,
2012-11-15 10:43:00,65.9,63.2,30.16,NNW,333,1.0,5.0,91,0.00,,---,0.00,163.00,VWS V14.01,2012-11-15 15:43:00,
2012-11-15 10:44:00,65.8,62.8,30.16,North,351,1.0,5.0,90,0.00,,---,0.00,163.00,VWS V14.01,2012-11-15 15:44:00,
2012-11-15 10:45:00,65.9,63.2,30.16,NNE,28,0.0,5.0,91,0.00,,---,0.00,160.00,VWS V14.01,2012-11-15 15:45:00,
2012-11-15 10:46:00,65.7,62.7,30.16,North,359,2.0,5.0,90,0.00,,---,0.00,186.00,VWS V14.01,2012-11-15 15:46:00,
2012-11-15 10:47:00,65.6,62.6,30.16,North,359,0.0,5.0,90,0.00,,---,0.00,186.00,VWS V14.01,2012-11-15 15:47:00,
2012-11-15 10:48:00,65.6,62.6,30.16,North,359,0.0,5.0,90,0.00,,---,0.00,186.00,VWS V14.01,2012-11-15 15:48:00,
2012-11-15 10:49:00,65.6,62.9,30.16,North,359,0.0,5.0,91,0.00,,---,0.00,185.00,VWS V14.01,2012-11-15 15:49:00,
2012-11-15 10:50:00,66.0,63.3,30.16,NNW,327,1.0,5.0,91,0.00,,---,0.00,163.00,VWS V14.01,2012-11-15 15:50:00,
2012-11-15 10:51:00,65.7,63.0,30.16,NW,325,1.0,5.0,91,0.00,,---,0.00,199.00,VWS V14.01,2012-11-15 15:51:00,
2012-11-15 10:52:00,65.7,63.0,30.16,North,353,3.0,5.0,91,0.00,,---,0.00,199.00,VWS V14.01,2012-11-15 15:52:00,
2012-11-15 10:53:00,65.7,63.0,30.16,NW,315,1.0,5.0,91,0.00,,---,0.00,199.00,VWS V14.01,2012-11-15 15:53:00,
2012-11-15 10:54:00,65.8,63.1,30.16,NNW,331,1.0,5.0,91,0.00,,---,0.00,199.00,VWS V14.01,2012-11-15 15:54:00,
2012-11-15 10:55:00,65.7,62.7,30.16,North,359,2.0,5.0,90,0.00,,---,0.00,186.00,VWS V14.01,2012-11-15 15:55:00,
2012-11-15 10:56:00,66.0,63.3,30.16,North,358,2.0,5.0,91,0.00,,---,0.00,195.00,VWS V14.01,2012-11-15 15:56:00,
2012-11-15 10:57:00,66.0,63.0,30.16,North,8,1.0,5.0,90,0.00,,---,0.00,195.00,VWS V14.01,2012-11-15 15:57:00,
2012-11-15 10:58:00,66.1,63.1,30.16,NNW,338,1.0,5.0,90,0.00,,---,0.00,195.00,VWS V14.01,2012-11-15 15:58:00,
2012-11-15 10:59:00,66.0,63.0,30.16,NNW,331,4.0,5.0,90,0.00,,---,0.00,176.00,VWS V14.01,2012-11-15 15:59:00,
2012-11-15 11:00:00,65.7,63.0,30.16,NW,325,1.0,5.0,91,0.00,,---,0.00,199.00,VWS V14.01,2012-11-15 16:00:00,
2012-11-15 11:01:00,65.9,62.9,30.16,NNW,346,1.0,1.0,90,0.00,,---,0.00,176.00,VWS V14.01,2012-11-15 16:01:00,
2012-11-15 11:02:00,65.9,62.9,30.16,NNW,346,0.0,1.0,90,0.00,,---,0.00,181.00,VWS V14.01,2012-11-15 16:02:00,
2012-11-15 11:03:00,65.8,62.8,30.16,ENE,60,0.0,1.0,90,0.00,,---,0.00,181.00,VWS V14.01,2012-11-15 16:03:00,
2012-11-15 11:04:00,65.8,62.8,30.16,ENE,60,0.0,1.0,90,0.00,,---,0.00,181.00,VWS V14.01,2012-11-15 16:04:00,
2012-11-15 11:05:00,66.0,63.3,30.16,North,1,2.0,5.0,91,0.00,,---,0.00,195.00,VWS V14.01,2012-11-15 16:05:00,
2012-11-15 11:06:00,66.0,63.3,30.16,NNE,17,0.0,1.0,91,0.00,,---,0.00,183.00,VWS V14.01,2012-11-15 16:06:00,
2012-11-15 11:07:00,66.1,63.4,30.16,NNE,17,0.0,1.0,91,0.00,,---,0.00,179.00,VWS V14.01,2012-11-15 16:07:00,
2012-11-15 11:08:00,66.0,63.0,30.15,NNE,17,0.0,1.0,90,0.00,,---,0.00,179.00,VWS V14.01,2012-11-15 16:08:00,
2012-11-15 11:09:00,66.0,63.0,30.16,NNE,14,1.0,1.0,90,0.00,,---,0.00,181.00,VWS V14.01,2012-11-15 16:09:00,
2012-11-15 11:10:00,65.9,62.9,30.16,NNW,346,1.0,1.0,90,0.00,,---,0.00,176.00,VWS V14.01,2012-11-15 16:10:00,
2012-11-15 11:11:00,66.0,63.0,30.15,NNE,14,0.0,1.0,90,0.00,,---,0.00,181.00,VWS V14.01,2012-11-15 16:11:00,
2012-11-15 11:12:00,66.0,63.0,30.15,ESE,105,2.0,2.0,90,0.00,,---,0.00,171.00,VWS V14.01,2012-11-15 16:12:00,
2012-11-15 11:13:00,66.0,63.0,30.15,ENE,62,0.0,2.0,90,0.00,,---,0.00,169.00,VWS V14.01,2012-11-15 16:13:00,
2012-11-15 11:14:00,66.1,63.1,30.15,NNW,337,1.0,3.0,90,0.00,,---,0.00,167.00,VWS V14.01,2012-11-15 16:14:00,
2012-11-15 11:15:00,66.1,63.1,30.15,NNW,337,0.0,3.0,90,0.00,,---,0.00,165.00,VWS V14.01,2012-11-15 16:15:00,
2012-11-15 11:16:00,66.1,63.4,30.16,NNE,17,0.0,1.0,91,0.00,,---,0.00,179.00,VWS V14.01,2012-11-15 16:16:00,
2012-11-15 11:17:00,66.2,63.2,30.15,NNW,333,1.0,3.0,90,0.00,,---,0.00,160.00,VWS V14.01,2012-11-15 16:17:00,
2012-11-15 11:18:00,66.2,63.2,30.15,NNW,337,3.0,3.0,90,0.00,,---,0.00,160.00,VWS V14.01,2012-11-15 16:18:00,
2012-11-15 11:19:00,66.2,63.2,30.15,NNW,337,1.0,3.0,90,0.00,,---,0.00,171.00,VWS V14.01,2012-11-15 16:19:00,
2012-11-15 11:20:00,66.3,63.3,30.15,North,11,1.0,3.0,90,0.00,,---,0.00,176.00,VWS V14.01,2012-11-15 16:20:00,
2012-11-15 11:21:00,66.0,63.0,30.15,NE,56,2.0,2.0,90,0.00,,---,0.00,181.00,VWS V14.01,2012-11-15 16:21:00,
2012-11-15 11:22:00,66.2,62.9,30.15,North,350,1.0,4.0,89,0.00,,---,0.00,172.00,VWS V14.01,2012-11-15 16:22:00,
2012-11-15 11:23:00,66.1,62.8,30.15,NW,326,0.0,4.0,89,0.00,,---,0.00,178.00,VWS V14.01,2012-11-15 16:23:00,
2012-11-15 11:24:00,66.2,62.9,30.15,SE,130,0.0,4.0,89,0.00,,---,0.00,185.00,VWS V14.01,2012-11-15 16:24:00,
2012-11-15 11:25:00,66.2,63.2,30.15,SE,130,0.0,4.0,90,0.00,,---,0.00,185.00,VWS V14.01,2012-11-15 16:25:00,
2012-11-15 11:26:00,66.2,63.2,30.15,NE,47,2.0,3.0,90,0.00,,---,0.00,160.00,VWS V14.01,2012-11-15 16:26:00,
2012-11-15 11:27:00,66.3,63.0,30.15,NE,43,0.0,4.0,89,0.00,,---,0.00,179.00,VWS V14.01,2012-11-15 16:27:00,
2012-11-15 11:28:00,66.3,63.3,30.15,NW,314,1.0,4.0,90,0.00,,---,0.00,178.00,VWS V14.01,2012-11-15 16:28:00,
2012-11-15 11:29:00,66.4,63.4,30.15,NW,320,0.0,4.0,90,0.00,,---,0.00,183.00,VWS V14.01,2012-11-15 16:29:00,
2012-11-15 11:30:00,66.4,63.1,30.15,NE,54,1.0,4.0,89,0.00,,---,0.00,183.00,VWS V14.01,2012-11-15 16:30:00,
2012-11-15 11:31:00,66.2,62.9,30.15,North,350,2.0,4.0,89,0.00,,---,0.00,172.00,VWS V14.01,2012-11-15 16:31:00,
2012-11-15 11:32:00,66.4,63.1,30.15,NNE,12,1.0,4.0,89,0.00,,---,0.00,199.00,VWS V14.01,2012-11-15 16:32:00,
2012-11-15 11:33:00,66.4,63.1,30.15,NNW,342,2.0,4.0,89,0.00,,---,0.00,199.00,VWS V14.01,2012-11-15 16:33:00,
2012-11-15 11:34:00,66.3,63.0,30.14,NNE,12,0.0,4.0,89,0.00,,---,0.00,207.00,VWS V14.01,2012-11-15 16:34:00,
2012-11-15 11:35:00,66.3,63.0,30.14,NNE,12,0.0,4.0,89,0.00,,---,0.00,211.00,VWS V14.01,2012-11-15 16:35:00,
2012-11-15 11:36:00,66.3,63.3,30.15,NE,43,1.0,4.0,90,0.00,,---,0.00,179.00,VWS V14.01,2012-11-15 16:36:00,
2012-11-15 11:37:00,66.7,63.7,30.14,NE,43,0.0,4.0,90,0.00,,---,0.00,211.00,VWS V14.01,2012-11-15 16:37:00,
2012-11-15 11:38:00,66.7,63.4,30.14,North,360,0.0,4.0,89,0.00,,---,0.00,211.00,VWS V14.01,2012-11-15 16:38:00,
2012-11-15 11:39:00,66.8,63.5,30.14,North,360,0.0,4.0,89,0.00,,---,0.00,234.00,VWS V14.01,2012-11-15 16:39:00,
2012-11-15 11:40:00,66.8,63.1,30.14,NNW,338,0.0,4.0,88,0.00,,---,0.00,232.00,VWS V14.01,2012-11-15 16:40:00,
2012-11-15 11:41:00,66.4,63.1,30.15,ENE,59,0.0,4.0,89,0.00,,---,0.00,199.00,VWS V14.01,2012-11-15 16:41:00,
2012-11-15 11:42:00,66.9,63.6,30.14,NE,40,1.0,4.0,89,0.00,,---,0.00,221.00,VWS V14.01,2012-11-15 16:42:00,
2012-11-15 11:43:00,66.9,63.6,30.14,ENE,69,0.0,4.0,89,0.00,,---,0.00,218.00,VWS V14.01,2012-11-15 16:43:00,
2012-11-15 11:44:00,66.9,63.2,30.14,NW,318,1.0,4.0,88,0.00,,---,0.00,218.00,VWS V14.01,2012-11-15 16:44:00,
2012-11-15 11:45:00,67.0,63.3,30.14,North,4,0.0,4.0,88,0.00,,---,0.00,218.00,VWS V14.01,2012-11-15 16:45:00,
2012-11-15 11:46:00,66.7,63.7,30.14,NNE,29,0.0,4.0,90,0.00,,---,0.00,211.00,VWS V14.01,2012-11-15 16:46:00,
2012-11-15 11:47:00,67.1,63.8,30.14,North,3,0.0,4.0,89,0.00,,---,0.00,209.00,VWS V14.01,2012-11-15 16:47:00,
2012-11-15 11:48:00,67.1,63.4,30.14,ENE,75,3.0,4.0,88,0.00,,---,0.00,209.00,VWS V14.01,2012-11-15 16:48:00,
2012-11-15 11:49:00,67.0,63.0,30.14,ENE,64,1.0,4.0,87,0.00,,---,0.00,209.00,VWS V14.01,2012-11-15 16:49:00,
2012-11-15 11:50:00,67.0,63.0,30.14,ENE,64,1.0,4.0,87,0.00,,---,0.00,223.00,VWS V14.01,2012-11-15 16:50:00,
2012-11-15 11:51:00,66.8,63.5,30.14,NE,40,1.0,4.0,89,0.00,,---,0.00,221.00,VWS V14.01,2012-11-15 16:51:00,
2012-11-15 11:52:00,67.1,63.4,30.14,ENE,64,0.0,4.0,88,0.00,,---,0.00,225.00,VWS V14.01,2012-11-15 16:52:00,
2012-11-15 11:53:00,67.2,63.8,30.14,ENE,62,0.0,4.0,89,0.00,,---,0.00,225.00,VWS V14.01,2012-11-15 16:53:00,
2012-11-15 11:54:00,67.3,63.6,30.14,NE,37,1.0,4.0,88,0.00,,---,0.00,225.00,VWS V14.01,2012-11-15 16:54:00,
2012-11-15 11:55:00,67.4,64.1,30.14,North,349,1.0,4.0,89,0.00,,---,0.00,225.00,VWS V14.01,2012-11-15 16:55:00,
2012-11-15 11:56:00,67.3,63.6,30.14,North,349,0.0,4.0,88,0.00,,---,0.00,221.00,VWS V14.01,2012-11-15 16:56:00,
2012-11-15 11:57:00,67.1,63.4,30.14,ENE,75,3.0,4.0,88,0.00,,---,0.00,209.00,VWS V14.01,2012-11-15 16:57:00,
2012-11-15 11:58:00,67.3,63.3,30.14,North,358,1.0,4.0,87,0.00,,---,0.00,211.00,VWS V14.01,2012-11-15 16:58:00,
2012-11-15 11:59:00,67.3,63.3,30.14,NNW,333,2.0,4.0,87,0.00,,---,0.00,207.00,VWS V14.01,2012-11-15 16:59:00,
2012-11-15 12:00:00,67.3,63.6,30.14,NNW,341,1.0,1.0,88,0.00,,---,0.00,206.00,VWS V14.01,2012-11-15 17:00:00,
2012-11-15 12:01:00,67.2,63.2,30.14,NNW,341,1.0,1.0,87,0.00,,---,0.00,206.00,VWS V14.01,2012-11-15 17:01:00,
2012-11-15 12:02:00,67.1,63.8,30.14,ENE,62,0.0,4.0,89,0.00,,---,0.00,225.00,VWS V14.01,2012-11-15 17:02:00,
2012-11-15 12:03:00,67.4,63.7,30.14,NNW,342,0.0,1.0,88,0.00,,---,0.00,206.00,VWS V14.01,2012-11-15 17:03:00,
2012-11-15 12:04:00,67.4,63.7,30.13,North,9,1.0,1.0,88,0.00,,---,0.00,204.00,VWS V14.01,2012-11-15 17:04:00,
2012-11-15 12:05:00,67.4,63.4,30.13,North,11,0.0,1.0,87,0.00,,---,0.00,197.00,VWS V14.01,2012-11-15 17:05:00,
2012-11-15 12:06:00,67.4,63.4,30.13,NNE,12,0.0,1.0,87,0.00,,---,0.00,195.00,VWS V14.01,2012-11-15 17:06:00,
2012-11-15 12:07:00,67.3,63.3,30.14,North,358,2.0,4.0,87,0.00,,---,0.00,211.00,VWS V14.01,2012-11-15 17:07:00,
2012-11-15 12:08:00,67.4,63.4,30.14,NNE,12,0.0,1.0,87,0.00,,---,0.00,188.00,VWS V14.01,2012-11-15 17:08:00,
2012-11-15 12:09:00,67.4,63.7,30.13,NNE,12,0.0,1.0,88,0.00,,---,0.00,185.00,VWS V14.01,2012-11-15 17:09:00,
2012-11-15 12:10:00,67.5,63.8,30.13,NE,39,1.0,1.0,88,0.00,,---,0.00,188.00,VWS V14.01,2012-11-15 17:10:00,
2012-11-15 12:11:00,67.5,63.8,30.13,ENE,62,1.0,3.0,88,0.00,,---,0.00,190.00,VWS V14.01,2012-11-15 17:11:00,
2012-11-15 12:12:00,67.4,63.7,30.14,NNW,342,0.0,1.0,88,0.00,,---,0.00,206.00,VWS V14.01,2012-11-15 17:12:00,
2012-11-15 12:13:00,67.4,63.4,30.13,ENE,62,0.0,3.0,87,0.00,,---,0.00,195.00,VWS V14.01,2012-11-15 17:13:00,
2012-11-15 12:14:00,67.4,63.4,30.13,North,10,1.0,3.0,87,0.00,,---,0.00,195.00,VWS V14.01,2012-11-15 17:14:00,
2012-11-15 12:15:00,67.4,63.7,30.13,NNW,341,2.0,3.0,88,0.00,,---,0.00,195.00,VWS V14.01,2012-11-15 17:15:00,
2012-11-15 12:16:00,67.4,63.4,30.13,NNW,341,0.0,3.0,87,0.00,,---,0.00,199.00,VWS V14.01,2012-11-15 17:16:00,
2012-11-15 12:17:00,67.4,63.4,30.13,NNE,12,0.0,1.0,87,0.00,,---,0.00,188.00,VWS V14.01,2012-11-15 17:17:00,
2012-11-15 12:18:00,67.4,63.7,30.13,NNW,341,0.0,3.0,88,0.00,,---,0.00,197.00,VWS V14.01,2012-11-15 17:18:00,
2012-11-15 12:19:00,67.4,63.4,30.13,NNW,341,0.0,3.0,87,0.00,,---,0.00,195.00,VWS V14.01,2012-11-15 17:19:00,
2012-11-15 12:20:00,67.5,63.5,30.13,North,352,0.0,3.0,87,0.00,,---,0.00,195.00,VWS V14.01,2012-11-15 17:20:00,
2012-11-15 12:21:00,67.4,63.4,30.13,North,352,0.0,3.0,87,0.00,,---,0.00,195.00,VWS V14.01,2012-11-15 17:21:00,
2012-11-15 12:22:00,67.4,63.4,30.13,ENE,62,0.0,3.0,87,0.00,,---,0.00,195.00,VWS V14.01,2012-11-15 17:22:00,
2012-11-15 12:23:00,67.5,63.2,30.13,North,352,0.0,3.0,86,0.00,,---,0.00,188.00,VWS V14.01,2012-11-15 17:23:00,
2012-11-15 12:24:00,67.5,63.5,30.13,North,352,0.0,3.0,87,0.00,,---,0.00,188.00,VWS V14.01,2012-11-15 17:24:00,
2012-11-15 12:25:00,67.5,63.5,30.13,North,352,0.0,3.0,87,0.00,,---,0.00,188.00,VWS V14.01,2012-11-15 17:25:00,
2012-11-15 12:26:00,67.5,63.5,30.13,North,4,0.0,3.0,87,0.00,,---,0.00,186.00,VWS V14.01,2012-11-15 17:26:00,
2012-11-15 12:27:00,67.4,63.7,30.13,NNW,341,0.0,3.0,88,0.00,,---,0.00,197.00,VWS V14.01,2012-11-15 17:27:00,
2012-11-15 12:28:00,67.6,63.6,30.12,East,89,0.0,3.0,87,0.00,,---,0.00,188.00,VWS V14.01,2012-11-15 17:28:00,
2012-11-15 12:29:00,67.6,63.6,30.12,North,10,0.0,3.0,87,0.00,,---,0.00,193.00,VWS V14.01,2012-11-15 17:29:00,
2012-11-15 12:30:00,67.7,63.7,30.12,North,356,0.0,3.0,87,0.00,,---,0.00,195.00,VWS V14.01,2012-11-15 17:30:00,
2012-11-15 12:31:00,67.7,63.4,30.12,NNW,347,0.0,3.0,86,0.00,,---,0.00,195.00,VWS V14.01,2012-11-15 17:31:00,
2012-11-15 12:32:00,67.4,63.1,30.13,North,352,1.0,3.0,86,0.00,,---,0.00,188.00,VWS V14.01,2012-11-15 17:32:00,
2012-11-15 12:33:00,67.7,63.4,30.12,NNW,333,2.0,3.0,86,0.00,,---,0.00,195.00,VWS V14.01,2012-11-15 17:33:00,
2012-11-15 12:34:00,67.7,63.4,30.12,North,352,1.0,3.0,86,0.00,,---,0.00,206.00,VWS V14.01,2012-11-15 17:34:00,
2012-11-15 12:35:00,67.7,63.0,30.12,North,352,0.0,3.0,85,0.00,,---,0.00,206.00,VWS V14.01,2012-11-15 17:35:00,
2012-11-15 12:36:00,67.7,63.4,30.12,North,352,0.0,3.0,86,0.00,,---,0.00,204.00,VWS V14.01,2012-11-15 17:36:00,
2012-11-15 12:37:00,67.6,63.6,30.12,East,89,0.0,3.0,87,0.00,,---,0.00,188.00,VWS V14.01,2012-11-15 17:37:00,
2012-11-15 12:38:00,67.8,63.5,30.12,NNW,332,0.0,3.0,86,0.00,,---,0.00,202.00,VWS V14.01,2012-11-15 17:38:00,
2012-11-15 12:39:00,67.8,63.8,30.12,SSE,165,0.0,3.0,87,0.00,,---,0.00,202.00,VWS V14.01,2012-11-15 17:39:00,
2012-11-15 12:40:00,67.8,63.8,30.12,SE,135,0.0,3.0,87,0.00,,---,0.00,204.00,VWS V14.01,2012-11-15 17:40:00,
2012-11-15 12:41:00,67.9,63.6,30.12,ENE,73,0.0,3.0,86,0.00,,---,0.00,206.00,VWS V14.01,2012-11-15 17:41:00,
2012-11-15 12:42:00,67.7,63.4,30.12,NNW,333,2.0,3.0,86,0.00,,---,0.00,195.00,VWS V14.01,2012-11-15 17:42:00,
2012-11-15 12:43:00,67.8,63.5,30.12,ENE,73,0.0,3.0,86,0.00,,---,0.00,207.00,VWS V14.01,2012-11-15 17:43:00,
2012-11-15 12:44:00,67.9,63.6,30.12,NNW,332,2.0,3.0,86,0.00,,---,0.00,216.00,VWS V14.01,2012-11-15 17:44:00,
2012-11-15 12:45:00,67.9,63.6,30.12,NNW,331,2.0,3.0,86,0.00,,---,0.00,221.00,VWS V14.01,2012-11-15 17:45:00,
2012-11-15 12:46:00,68.0,63.7,30.12,NNW,337,0.0,3.0,86,0.00,,---,0.00,221.00,VWS V14.01,2012-11-15 17:46:00,
2012-11-15 12:47:00,68.1,64.1,30.12,NNW,337,0.0,3.0,87,0.00,,---,0.00,223.00,VWS V14.01,2012-11-15 17:47:00,
2012-11-15 12:48:00,67.8,63.5,30.12,NNW,332,0.0,3.0,86,0.00,,---,0.00,202.00,VWS V14.01,2012-11-15 17:48:00,
2012-11-15 12:49:00,68.2,64.2,30.11,NNW,337,0.0,3.0,87,0.00,,---,0.00,216.00,VWS V14.01,2012-11-15 17:49:00,
2012-11-15 12:50:00,68.2,63.9,30.11,NNW,337,0.0,3.0,86,0.00,,---,0.00,207.00,VWS V14.01,2012-11-15 17:50:00,
2012-11-15 12:51:00,68.1,63.8,30.11,ENE,70,2.0,3.0,86,0.00,,---,0.00,200.00,VWS V14.01,2012-11-15 17:51:00,
2012-11-15 12:52:00,68.1,63.8,30.11,ENE,66,1.0,3.0,86,0.00,,---,0.00,197.00,VWS V14.01,2012-11-15 17:52:00,
2012-11-15 12:53:00,67.8,63.5,30.12,ENE,73,0.0,3.0,86,0.00,,---,0.00,207.00,VWS V14.01,2012-11-15 17:53:00,
2012-11-15 12:54:00,68.1,63.8,30.11,ENE,66,0.0,3.0,86,0.00,,---,0.00,192.00,VWS V14.01,2012-11-15 17:54:00,
2012-11-15 12:55:00,68.1,63.4,30.11,NNW,332,0.0,3.0,85,0.00,,---,0.00,186.00,VWS V14.01,2012-11-15 17:55:00,
2012-11-15 12:56:00,67.9,63.2,30.11,NNW,332,0.0,3.0,85,0.00,,---,0.00,183.00,VWS V14.01,2012-11-15 17:56:00,
2012-11-15 12:57:00,67.9,63.2,30.11,NNW,332,0.0,3.0,85,0.00,,---,0.00,183.00,VWS V14.01,2012-11-15 17:57:00,
2012-11-15 12:58:00,68.1,64.1,30.12,NNW,337,0.0,3.0,87,0.00,,---,0.00,216.00,VWS V14.01,2012-11-15 17:58:00,
2012-11-15 12:59:00,67.8,63.5,30.11,East,89,0.0,4.0,86,0.00,,---,0.00,185.00,VWS V14.01,2012-11-15 17:59:00,
2012-11-15 13:00:00,67.7,63.0,30.11,East,83,1.0,1.0,85,0.00,,---,0.00,185.00,VWS V14.01,2012-11-15 18:00:00,
2012-11-15 13:01:00,67.7,63.0,30.11,ENE,77,0.0,1.0,85,0.00,,---,0.00,181.00,VWS V14.01,2012-11-15 18:01:00,
2012-11-15 13:02:00,67.8,63.5,30.11,ENE,77,0.0,1.0,86,0.00,,---,0.00,183.00,VWS V14.01,2012-11-15 18:02:00,
2012-11-15 13:03:00,68.1,63.8,30.11,ENE,66,0.0,3.0,86,0.00,,---,0.00,192.00,VWS V14.01,2012-11-15 18:03:00,
2012-11-15 13:04:00,67.9,63.6,30.11,ENE,77,0.0,1.0,86,0.00,,---,0.00,183.00,VWS V14.01,2012-11-15 18:04:00,
2012-11-15 13:05:00,67.9,63.6,30.11,North,349,0.0,1.0,86,0.00,,---,0.00,178.00,VWS V14.01,2012-11-15 18:05:00,
2012-11-15 13:06:00,67.9,63.6,30.11,North,349,0.0,1.0,86,0.00,,---,0.00,178.00,VWS V14.01,2012-11-15 18:06:00,
2012-11-15 13:07:00,68.0,63.7,30.11,NNW,329,0.0,1.0,86,0.00,,---,0.00,179.00,VWS V14.01,2012-11-15 18:07:00,
2012-11-15 13:08:00,67.8,63.5,30.11,East,89,1.0,4.0,86,0.00,,---,0.00,185.00,VWS V14.01,2012-11-15 18:08:00,
2012-11-15 13:09:00,67.9,63.6,30.11,NNW,329,0.0,1.0,86,0.00,,---,0.00,188.00,VWS V14.01,2012-11-15 18:09:00,
2012-11-15 13:10:00,67.9,63.6,30.11,NNW,329,0.0,1.0,86,0.00,,---,0.00,188.00,VWS V14.01,2012-11-15 18:10:00,
2012-11-15 13:11:00,67.9,63.6,30.11,NNW,329,0.0,1.0,86,0.00,,---,0.00,188.00,VWS V14.01,2012-11-15 18:11:00,
2012-11-15 13:12:00,67.9,63.6,30.11,NNW,329,0.0,1.0,86,0.00,,---,0.00,188.00,VWS V14.01,2012-11-15 18:12:00,
2012-11-15 13:13:00,67.9,63.6,30.11,ENE,77,0.0,1.0,86,0.00,,---,0.00,183.00,VWS V14.01,2012-11-15 18:13:00,
2012-11-15 13:14:00,68.0,63.7,30.11,NNW,329,0.0,1.0,86,0.00,,---,0.00,195.00,VWS V14.01,2012-11-15 18:14:00,
2012-11-15 13:15:00,68.0,63.3,30.11,NNW,329,0.0,1.0,85,0.00,,---,0.00,195.00,VWS V14.01,2012-11-15 18:15:00,
2012-11-15 13:16:00,68.1,63.4,30.10,NNW,343,1.0,1.0,85,0.00,,---,0.00,195.00,VWS V14.01,2012-11-15 18:16:00,
2012-11-15 13:17:00,68.1,63.8,30.11,NNW,343,0.0,1.0,86,0.00,,---,0.00,195.00,VWS V14.01,2012-11-15 18:17:00,
2012-11-15 13:18:00,68.2,63.9,30.11,NE,35,0.0,1.0,86,0.00,,---,0.00,181.00,VWS V14.01,2012-11-15 18:18:00,
2012-11-15 13:19:00,67.9,63.6,30.11,NNW,329,0.0,1.0,86,0.00,,---,0.00,188.00,VWS V14.01,2012-11-15 18:19:00,
2012-11-15 13:20:00,68.2,63.5,30.11,NNW,333,0.0,4.0,85,0.00,,---,0.00,192.00,VWS V14.01,2012-11-15 18:20:00,
2012-11-15 13:21:00,68.2,63.5,30.11,NNW,333,0.0,4.0,85,0.00,,---,0.00,195.00,VWS V14.01,2012-11-15 18:21:00,
2012-11-15 13:22:00,68.3,63.6,30.10,NNW,333,0.0,4.0,85,0.00,,---,0.00,195.00,VWS V14.01,2012-11-15 18:22:00,
2012-11-15 13:23:00,68.3,63.6,30.10,East,85,2.0,4.0,85,0.00,,---,0.00,197.00,VWS V14.01,2012-11-15 18:23:00,
2012-11-15 13:24:00,68.0,63.3,30.11,NNW,329,0.0,1.0,85,0.00,,---,0.00,195.00,VWS V14.01,2012-11-15 18:24:00,
2012-11-15 13:25:00,68.4,63.7,30.10,NW,326,3.0,4.0,85,0.00,,---,0.00,197.00,VWS V14.01,2012-11-15 18:25:00,
2012-11-15 13:26:00,68.4,63.7,30.10,NNW,338,0.0,4.0,85,0.00,,---,0.00,197.00,VWS V14.01,2012-11-15 18:26:00,
2012-11-15 13:27:00,68.4,63.4,30.10,North,359,2.0,4.0,84,0.00,,---,0.00,195.00,VWS V14.01,2012-11-15 18:27:00,
2012-11-15 13:28:00,68.3,63.3,30.10,North,353,1.0,4.0,84,0.00,,---,0.00,197.00,VWS V14.01,2012-11-15 18:28:00,
2012-11-15 13:29:00,68.2,63.5,30.11,NNW,333,0.0,4.0,85,0.00,,---,0.00,192.00,VWS V14.01,2012-11-15 18:29:00,
2012-11-15 13:30:00,68.4,63.7,30.10,North,1,0.0,4.0,85,0.00,,---,0.00,197.00,VWS V14.01,2012-11-15 18:30:00,
2012-11-15 13:31:00,68.4,64.1,30.10,NNE,19,0.0,4.0,86,0.00,,---,0.00,195.00,VWS V14.01,2012-11-15 18:31:00,
2012-11-15 13:32:00,68.5,64.2,30.10,NE,46,1.0,4.0,86,0.00,,---,0.00,192.00,VWS V14.01,2012-11-15 18:32:00,
2012-11-15 13:33:00,68.6,63.9,30.10,East,95,4.0,4.0,85,0.00,,---,0.00,192.00,VWS V14.01,2012-11-15 18:33:00,
2012-11-15 13:34:00,68.4,63.7,30.10,East,85,0.0,4.0,85,0.00,,---,0.00,197.00,VWS V14.01,2012-11-15 18:34:00,
2012-11-15 13:35:00,68.5,63.5,30.10,ENE,63,0.0,4.0,84,0.00,,---,0.00,193.00,VWS V14.01,2012-11-15 18:35:00,
2012-11-15 13:36:00,68.5,63.5,30.10,NNE,19,0.0,4.0,84,0.00,,---,0.00,206.00,VWS V14.01,2012-11-15 18:36:00,
2012-11-15 13:37:00,68.6,63.9,30.10,NNE,14,0.0,4.0,85,0.00,,---,0.00,206.00,VWS V14.01,2012-11-15 18:37:00,
2012-11-15 13:38:00,68.6,63.9,30.10,NNE,14,0.0,4.0,85,0.00,,---,0.00,230.00,VWS V14.01,2012-11-15 18:38:00,
2012-11-15 13:39:00,68.4,63.7,30.10,North,1,1.0,4.0,85,0.00,,---,0.00,197.00,VWS V14.01,2012-11-15 18:39:00,
2012-11-15 13:40:00,68.6,63.6,30.10,NNE,14,1.0,4.0,84,0.00,,---,0.00,227.00,VWS V14.01,2012-11-15 18:40:00,
2012-11-15 13:41:00,68.6,63.6,30.10,NNE,14,0.0,4.0,84,0.00,,---,0.00,227.00,VWS V14.01,2012-11-15 18:41:00,
2012-11-15 13:42:00,68.6,63.6,30.10,North,7,2.0,4.0,84,0.00,,---,0.00,227.00,VWS V14.01,2012-11-15 18:42:00,
2012-11-15 13:43:00,68.6,63.6,30.10,North,7,1.0,4.0,84,0.00,,---,0.00,209.00,VWS V14.01,2012-11-15 18:43:00,
2012-11-15 13:44:00,68.6,63.6,30.10,North,7,1.0,4.0,84,0.00,,---,0.00,204.00,VWS V14.01,2012-11-15 18:44:00,
2012-11-15 13:45:00,68.5,63.5,30.10,ENE,63,0.0,4.0,84,0.00,,---,0.00,193.00,VWS V14.01,2012-11-15 18:45:00,
2012-11-15 13:46:00,68.7,63.7,30.10,North,8,0.0,4.0,84,0.00,,---,0.00,197.00,VWS V14.01,2012-11-15 18:46:00,
2012-11-15 13:47:00,68.8,63.8,30.10,North,8,0.0,4.0,84,0.00,,---,0.00,197.00,VWS V14.01,2012-11-15 18:47:00,
2012-11-15 13:48:00,68.8,64.1,30.10,NNW,341,2.0,4.0,85,0.00,,---,0.00,197.00,VWS V14.01,2012-11-15 18:48:00,
2012-11-15 13:49:00,68.6,63.6,30.10,NNE,14,1.0,4.0,84,0.00,,---,0.00,227.00,VWS V14.01,2012-11-15 18:49:00,
2012-11-15 13:50:00,68.8,63.8,30.10,NNW,341,1.0,4.0,84,0.00,,---,0.00,186.00,VWS V14.01,2012-11-15 18:50:00,
2012-11-15 13:51:00,68.6,63.6,30.10,NNW,341,0.0,4.0,84,0.00,,---,0.00,186.00,VWS V14.01,2012-11-15 18:51:00,
2012-11-15 13:52:00,68.5,63.5,30.10,NNW,341,0.0,4.0,84,0.00,,---,0.00,186.00,VWS V14.01,2012-11-15 18:52:00,
2012-11-15 13:53:00,68.6,64.2,30.09,NNW,341,1.0,4.0,86,0.00,,---,0.00,178.00,VWS V14.01,2012-11-15 18:53:00,
2012-11-15 13:54:00,68.6,63.9,30.10,NNW,340,1.0,4.0,85,0.00,,---,0.00,179.00,VWS V14.01,2012-11-15 18:54:00,
2012-11-15 13:55:00,68.7,63.7,30.10,North,8,0.0,4.0,84,0.00,,---,0.00,200.00,VWS V14.01,2012-11-15 18:55:00,
2012-11-15 13:56:00,68.6,63.6,30.09,NNW,345,2.0,4.0,84,0.00,,---,0.00,192.00,VWS V14.01,2012-11-15 18:56:00,
2012-11-15 13:59:00,68.8,63.8,30.10,NNW,341,1.0,4.0,84,0.00,,---,0.00,186.00,VWS V14.01,2012-11-15 18:59:00,
2012-11-15 14:00:00,68.5,63.8,30.09,NNW,338,0.0,4.0,85,0.00,,---,0.00,196.00,VWS V14.01,2012-11-15 19:00:00,
2012-11-15 14:05:00,68.6,63.6,30.09,NNW,337,3.0,4.0,84,0.00,,---,0.00,179.00,VWS V14.01,2012-11-15 19:05:00,
2012-11-15 15:00:00,69.3,64.6,30.09,ENE,68,0.0,4.0,85,0.00,,---,0.00,187.00,VWS V14.01,2012-11-15 20:00:00,
2012-11-15 16:00:00,68.1,63.1,30.09,East,90,0.0,4.0,84,0.00,,---,0.00,127.00,VWS V14.01,2012-11-15 21:00:00,
2012-11-15 17:00:00,66.3,61.7,30.10,ENE,68,1.0,8.0,85,0.00,,---,0.00,40.00,VWS V14.01,2012-11-15 22:00:00,
2012-11-15 18:00:00,64.1,60.5,30.12,ENE,68,1.0,9.0,88,0.00,,---,0.00,3.00,VWS V14.01,2012-11-15 23:00:00,
2012-11-15 19:00:00,62.6,60.2,30.12,ENE,68,2.0,7.0,92,0.00,,---,0.00,0.00,VWS V14.01,2012-11-16 00:00:00,
2012-11-15 20:00:00,62.4,60.3,30.14,ENE,68,2.0,9.0,93,0.00,,---,0.00,0.00,VWS V14.01,2012-11-16 01:00:00,
2012-11-15 21:00:00,61.9,59.9,30.15,ENE,68,1.0,8.0,93,0.00,,---,0.00,0.00,VWS V14.01,2012-11-16 02:00:00,
2012-11-15 22:00:00,61.1,59.4,30.16,ENE,68,1.0,10.0,94,0.00,,---,0.00,0.00,VWS V14.01,2012-11-16 03:00:00,
2012-11-15 23:00:00,60.1,58.4,30.16,ENE,68,1.0,7.0,94,0.00,,---,0.00,0.00,VWS V14.01,2012-11-16 04:00:00,